SWR11EM LSZH-KMCO
Flight info
| Callsign | SWR11EM |
|---|---|
| Flight time | 9h 40m |
| Altitude | 34000 |
| Route | VEBIT4S VEBIT T10 TORPA DCT REKLA DCT RLP DCT ROTSI DCT KOTUN DCT AMAXA DCT VESAN DCT RATUK DCT SOVAT/N0483F360 L613 SANDY DCT ODVIK DCT SAM N19 ADKIK DCT FONZU DCT LESLU DCT BIBLA/M085F360 DCT DINIM/M085F380 NATG TUDEP DCT CARAC/M084F400 M201 VIRST Y494 WHOOS/N0480F400 Y494 AYCHB Y493 JENKS DCT 30N080W DCT OMN BITHO7 |
| Aircraft | A359/H-SDE2E3GHIJ3J4J5LM1ORWXY/LB1D1 |
Departure
| Time | 2026-04-26 14:14 |
|---|---|
| Airport | Zürich Airport (LSZH) |
Arrival
| Time | 2026-04-26 23:54 |
|---|---|
| Airport | Orlando International Airport (KMCO) |
| Time | Latitude | Longitude | Altitude | Speed | Heading |
|---|---|---|---|---|---|
| 2026-04-26 12:53 | 47.46032 | 8.55735 | 1415 ft | 0 kts | 6° |
| 2026-04-26 14:02 | 47.46027 | 8.55735 | 1436 ft | 4 kts | 6° |
| 2026-04-26 14:02 | 47.46000 | 8.55730 | 1411 ft | 4 kts | 6° |
| 2026-04-26 14:02 | 47.45973 | 8.55726 | 1415 ft | 3 kts | 6° |
| 2026-04-26 14:03 | 47.45955 | 8.55725 | 1412 ft | 5 kts | 317° |
| 2026-04-26 14:03 | 47.45947 | 8.55754 | 1415 ft | 7 kts | 276° |
| 2026-04-26 14:03 | 47.45944 | 8.55794 | 1410 ft | 7 kts | 276° |
| 2026-04-26 14:03 | 47.45943 | 8.55809 | 1410 ft | 5 kts | 276° |
| 2026-04-26 14:05 | 47.45944 | 8.55809 | 1410 ft | 0 kts | 276° |
| 2026-04-26 14:07 | 47.45944 | 8.55803 | 1410 ft | 3 kts | 275° |
| 2026-04-26 14:07 | 47.45949 | 8.55719 | 1414 ft | 13 kts | 275° |
| 2026-04-26 14:07 | 47.45962 | 8.55548 | 1413 ft | 21 kts | 277° |
| 2026-04-26 14:08 | 47.45979 | 8.55312 | 1411 ft | 23 kts | 275° |
| 2026-04-26 14:08 | 47.45996 | 8.55074 | 1408 ft | 24 kts | 276° |
| 2026-04-26 14:08 | 47.46082 | 8.54900 | 1400 ft | 23 kts | 334° |
| 2026-04-26 14:08 | 47.46230 | 8.54799 | 1403 ft | 24 kts | 335° |
| 2026-04-26 14:09 | 47.46382 | 8.54691 | 1402 ft | 24 kts | 333° |
| 2026-04-26 14:09 | 47.46530 | 8.54587 | 1399 ft | 23 kts | 337° |
| 2026-04-26 14:09 | 47.46675 | 8.54491 | 1399 ft | 23 kts | 335° |
| 2026-04-26 14:09 | 47.46830 | 8.54398 | 1385 ft | 24 kts | 338° |
| 2026-04-26 14:10 | 47.46980 | 8.54292 | 1385 ft | 23 kts | 335° |
| 2026-04-26 14:10 | 47.47124 | 8.54195 | 1398 ft | 22 kts | 335° |
| 2026-04-26 14:10 | 47.47273 | 8.54093 | 1405 ft | 27 kts | 335° |
| 2026-04-26 14:10 | 47.47442 | 8.53977 | 1408 ft | 26 kts | 335° |
| 2026-04-26 14:11 | 47.47604 | 8.53803 | 1412 ft | 0 kts | 283° |
| 2026-04-26 14:11 | 47.47605 | 8.53800 | 1411 ft | 4 kts | 283° |
| 2026-04-26 14:11 | 47.47596 | 8.53714 | 1409 ft | 12 kts | 252° |
| 2026-04-26 14:12 | 47.47548 | 8.53618 | 1409 ft | 8 kts | 183° |
| 2026-04-26 14:12 | 47.47506 | 8.53641 | 1413 ft | 0 kts | 156° |
| 2026-04-26 14:13 | 47.47384 | 8.53722 | 1406 ft | 46 kts | 155° |
| 2026-04-26 14:13 | 47.46888 | 8.54065 | 1386 ft | 109 kts | 155° |
| 2026-04-26 14:13 | 47.46030 | 8.54655 | 1406 ft | 161 kts | 155° |
| 2026-04-26 14:14 | 47.44900 | 8.55416 | 1690 ft | 183 kts | 157° |
| 2026-04-26 14:14 | 47.43754 | 8.56158 | 2437 ft | 179 kts | 151° |
| 2026-04-26 14:14 | 47.42945 | 8.57576 | 2732 ft | 193 kts | 102° |
| 2026-04-26 14:14 | 47.43079 | 8.59546 | 3084 ft | 206 kts | 59° |
| 2026-04-26 14:15 | 47.44160 | 8.60908 | 3712 ft | 214 kts | 21° |
| 2026-04-26 14:15 | 47.45656 | 8.60878 | 4416 ft | 225 kts | 341° |
| 2026-04-26 14:15 | 47.46869 | 8.59426 | 5077 ft | 232 kts | 303° |
| 2026-04-26 14:15 | 47.47239 | 8.57115 | 5733 ft | 238 kts | 264° |
| 2026-04-26 14:16 | 47.46731 | 8.54805 | 6471 ft | 237 kts | 246° |
| 2026-04-26 14:16 | 47.46078 | 8.52570 | 7167 ft | 237 kts | 253° |
| 2026-04-26 14:16 | 47.45683 | 8.50201 | 7680 ft | 248 kts | 258° |
| 2026-04-26 14:16 | 47.45139 | 8.47678 | 7941 ft | 268 kts | 244° |
| 2026-04-26 14:17 | 47.44146 | 8.45291 | 8453 ft | 276 kts | 235° |
| 2026-04-26 14:17 | 47.43025 | 8.42963 | 9153 ft | 279 kts | 235° |
| 2026-04-26 14:17 | 47.41895 | 8.40620 | 9863 ft | 282 kts | 235° |
| 2026-04-26 14:17 | 47.40747 | 8.38217 | 10312 ft | 293 kts | 236° |
| 2026-04-26 14:18 | 47.39553 | 8.35695 | 10543 ft | 306 kts | 236° |
| 2026-04-26 14:18 | 47.38433 | 8.32950 | 10790 ft | 319 kts | 242° |
| 2026-04-26 14:18 | 47.37386 | 8.30040 | 10970 ft | 332 kts | 244° |
| 2026-04-26 14:18 | 47.36303 | 8.26971 | 11176 ft | 344 kts | 243° |
| 2026-04-26 14:19 | 47.35176 | 8.23788 | 11385 ft | 355 kts | 244° |
| 2026-04-26 14:19 | 47.34017 | 8.20517 | 11565 ft | 365 kts | 244° |
| 2026-04-26 14:19 | 47.32822 | 8.17168 | 11850 ft | 373 kts | 243° |
| 2026-04-26 14:19 | 47.31608 | 8.13771 | 12191 ft | 377 kts | 243° |
| 2026-04-26 14:20 | 47.30386 | 8.10333 | 12617 ft | 379 kts | 244° |
| 2026-04-26 14:20 | 47.29160 | 8.06890 | 13087 ft | 380 kts | 244° |
| 2026-04-26 14:20 | 47.27973 | 8.03411 | 13530 ft | 381 kts | 248° |
| 2026-04-26 14:20 | 47.27266 | 7.99659 | 13858 ft | 384 kts | 264° |
| 2026-04-26 14:21 | 47.27254 | 7.95768 | 14210 ft | 384 kts | 275° |
| 2026-04-26 14:21 | 47.27531 | 7.91853 | 14632 ft | 386 kts | 278° |
| 2026-04-26 14:21 | 47.27936 | 7.87955 | 15089 ft | 385 kts | 280° |
| 2026-04-26 14:21 | 47.28381 | 7.84052 | 15425 ft | 388 kts | 280° |
| 2026-04-26 14:22 | 47.28823 | 7.80112 | 15742 ft | 391 kts | 279° |
| 2026-04-26 14:22 | 47.29245 | 7.76146 | 16108 ft | 394 kts | 279° |
| 2026-04-26 14:22 | 47.29648 | 7.72149 | 16469 ft | 396 kts | 279° |
| 2026-04-26 14:22 | 47.30036 | 7.68132 | 16886 ft | 396 kts | 278° |
| 2026-04-26 14:23 | 47.30479 | 7.64121 | 17248 ft | 398 kts | 283° |
| 2026-04-26 14:23 | 47.31175 | 7.60167 | 17646 ft | 399 kts | 286° |
| 2026-04-26 14:23 | 47.31946 | 7.56279 | 17927 ft | 403 kts | 287° |
| 2026-04-26 14:23 | 47.32781 | 7.52336 | 18289 ft | 404 kts | 288° |
| 2026-04-26 14:24 | 47.33644 | 7.48387 | 18623 ft | 406 kts | 288° |
| 2026-04-26 14:24 | 47.34521 | 7.44410 | 18882 ft | 409 kts | 288° |
| 2026-04-26 14:24 | 47.35397 | 7.40423 | 19246 ft | 409 kts | 288° |
| 2026-04-26 14:24 | 47.36270 | 7.36432 | 19559 ft | 410 kts | 288° |
| 2026-04-26 14:25 | 47.37143 | 7.32412 | 19867 ft | 412 kts | 288° |
| 2026-04-26 14:25 | 47.38015 | 7.28384 | 20159 ft | 413 kts | 288° |
| 2026-04-26 14:25 | 47.38873 | 7.24393 | 20443 ft | 415 kts | 288° |
| 2026-04-26 14:25 | 47.39744 | 7.20325 | 20729 ft | 416 kts | 288° |
| 2026-04-26 14:26 | 47.40576 | 7.16226 | 21023 ft | 418 kts | 284° |
| 2026-04-26 14:26 | 47.41272 | 7.12050 | 21345 ft | 419 kts | 284° |
| 2026-04-26 14:26 | 47.41928 | 7.07846 | 21629 ft | 421 kts | 283° |
| 2026-04-26 14:26 | 47.42560 | 7.03612 | 21873 ft | 424 kts | 283° |
| 2026-04-26 14:27 | 47.43181 | 6.99347 | 22147 ft | 426 kts | 283° |
| 2026-04-26 14:27 | 47.43801 | 6.95064 | 22429 ft | 427 kts | 283° |
| 2026-04-26 14:27 | 47.44413 | 6.90823 | 22722 ft | 429 kts | 283° |
| 2026-04-26 14:27 | 47.45038 | 6.86497 | 22992 ft | 431 kts | 283° |
| 2026-04-26 14:28 | 47.45663 | 6.82173 | 23278 ft | 432 kts | 283° |
| 2026-04-26 14:28 | 47.46295 | 6.77810 | 23559 ft | 434 kts | 283° |
| 2026-04-26 14:28 | 47.46927 | 6.73439 | 23814 ft | 436 kts | 283° |
| 2026-04-26 14:28 | 47.47559 | 6.69052 | 24031 ft | 438 kts | 283° |
| 2026-04-26 14:29 | 47.48052 | 6.64603 | 24214 ft | 441 kts | 279° |
| 2026-04-26 14:29 | 47.48442 | 6.60085 | 24412 ft | 443 kts | 278° |
| 2026-04-26 14:29 | 47.48787 | 6.55612 | 24657 ft | 444 kts | 278° |
| 2026-04-26 14:29 | 47.49115 | 6.51067 | 24887 ft | 446 kts | 278° |
| 2026-04-26 14:30 | 47.49435 | 6.46503 | 25155 ft | 447 kts | 278° |
| 2026-04-26 14:30 | 47.49752 | 6.41925 | 25398 ft | 448 kts | 278° |
| 2026-04-26 14:30 | 47.50069 | 6.37338 | 25648 ft | 449 kts | 278° |
| 2026-04-26 14:30 | 47.50388 | 6.32737 | 25906 ft | 450 kts | 278° |
| 2026-04-26 14:31 | 47.50709 | 6.28121 | 26166 ft | 452 kts | 278° |
| 2026-04-26 14:31 | 47.51030 | 6.23492 | 26376 ft | 454 kts | 278° |
| 2026-04-26 14:31 | 47.51347 | 6.18908 | 26624 ft | 455 kts | 278° |
| 2026-04-26 14:31 | 47.51668 | 6.14240 | 26884 ft | 457 kts | 278° |
| 2026-04-26 14:32 | 47.51987 | 6.09566 | 27148 ft | 458 kts | 278° |
| 2026-04-26 14:32 | 47.52306 | 6.04873 | 27402 ft | 459 kts | 278° |
| 2026-04-26 14:32 | 47.52623 | 6.00167 | 27673 ft | 460 kts | 278° |
| 2026-04-26 14:32 | 47.52956 | 5.95449 | 27938 ft | 461 kts | 279° |
| 2026-04-26 14:33 | 47.53559 | 5.90792 | 28175 ft | 461 kts | 287° |
| 2026-04-26 14:33 | 47.54580 | 5.86300 | 28428 ft | 461 kts | 294° |
| 2026-04-26 14:33 | 47.56045 | 5.82078 | 28630 ft | 462 kts | 303° |
| 2026-04-26 14:33 | 47.57914 | 5.78282 | 28834 ft | 463 kts | 310° |
| 2026-04-26 14:34 | 47.60021 | 5.74659 | 29084 ft | 464 kts | 312° |
| 2026-04-26 14:34 | 47.62198 | 5.71113 | 29299 ft | 466 kts | 313° |
| 2026-04-26 14:34 | 47.64409 | 5.67594 | 29547 ft | 467 kts | 314° |
| 2026-04-26 14:34 | 47.66629 | 5.64076 | 29806 ft | 468 kts | 313° |
| 2026-04-26 14:35 | 47.68845 | 5.60549 | 30170 ft | 466 kts | 313° |
| 2026-04-26 14:35 | 47.71043 | 5.57027 | 30521 ft | 464 kts | 313° |
| 2026-04-26 14:35 | 47.73225 | 5.53509 | 30805 ft | 463 kts | 313° |
| 2026-04-26 14:35 | 47.75371 | 5.50033 | 31090 ft | 462 kts | 313° |
| 2026-04-26 14:36 | 47.77536 | 5.46514 | 31365 ft | 461 kts | 313° |
| 2026-04-26 14:36 | 47.79691 | 5.43000 | 31699 ft | 459 kts | 313° |
| 2026-04-26 14:36 | 47.81842 | 5.39490 | 31996 ft | 458 kts | 313° |
| 2026-04-26 14:36 | 47.83982 | 5.35996 | 32278 ft | 457 kts | 314° |
| 2026-04-26 14:37 | 47.86117 | 5.32503 | 32573 ft | 455 kts | 314° |
| 2026-04-26 14:37 | 47.88242 | 5.29024 | 32865 ft | 454 kts | 314° |
| 2026-04-26 14:37 | 47.90339 | 5.25589 | 33125 ft | 453 kts | 314° |
| 2026-04-26 14:38 | 47.94573 | 5.18646 | 33185 ft | 452 kts | 314° |
| 2026-04-26 14:38 | 47.98797 | 5.11687 | 33183 ft | 452 kts | 314° |
| 2026-04-26 14:39 | 48.03016 | 5.04712 | 33186 ft | 452 kts | 314° |
| 2026-04-26 14:39 | 48.07231 | 4.97732 | 33185 ft | 452 kts | 314° |
| 2026-04-26 14:40 | 48.11412 | 4.90791 | 33181 ft | 452 kts | 314° |
| 2026-04-26 14:40 | 48.15615 | 4.83793 | 33189 ft | 451 kts | 313° |
| 2026-04-26 14:41 | 48.19806 | 4.76797 | 33191 ft | 451 kts | 313° |
| 2026-04-26 14:41 | 48.23994 | 4.69789 | 33180 ft | 451 kts | 313° |
| 2026-04-26 14:42 | 48.28176 | 4.62772 | 33194 ft | 451 kts | 313° |
| 2026-04-26 14:42 | 48.32329 | 4.55795 | 33195 ft | 451 kts | 313° |
| 2026-04-26 14:43 | 48.36501 | 4.48751 | 33202 ft | 451 kts | 313° |
| 2026-04-26 14:43 | 48.40667 | 4.41698 | 33209 ft | 450 kts | 313° |
| 2026-04-26 14:44 | 48.44825 | 4.34645 | 33209 ft | 450 kts | 313° |
| 2026-04-26 14:44 | 48.48977 | 4.27584 | 33200 ft | 450 kts | 313° |
| 2026-04-26 14:45 | 48.53100 | 4.20553 | 33232 ft | 450 kts | 313° |
| 2026-04-26 14:45 | 48.57242 | 4.13470 | 33234 ft | 450 kts | 313° |
| 2026-04-26 14:46 | 48.61381 | 4.06379 | 33231 ft | 449 kts | 312° |
| 2026-04-26 14:46 | 48.65478 | 3.99336 | 33231 ft | 449 kts | 312° |
| 2026-04-26 14:47 | 48.69595 | 3.92239 | 33229 ft | 449 kts | 312° |
| 2026-04-26 14:47 | 48.74064 | 3.85673 | 33228 ft | 448 kts | 322° |
| 2026-04-26 14:48 | 48.79056 | 3.79996 | 33225 ft | 449 kts | 324° |
| 2026-04-26 14:48 | 48.84128 | 3.74470 | 33219 ft | 449 kts | 324° |
| 2026-04-26 14:49 | 48.89204 | 3.68950 | 33252 ft | 449 kts | 324° |
| 2026-04-26 14:49 | 48.94262 | 3.63406 | 33216 ft | 454 kts | 324° |
| 2026-04-26 14:50 | 48.99391 | 3.57764 | 33222 ft | 455 kts | 324° |
| 2026-04-26 14:50 | 49.04513 | 3.52111 | 33214 ft | 455 kts | 323° |
| 2026-04-26 14:51 | 49.09628 | 3.46446 | 33223 ft | 455 kts | 323° |
| 2026-04-26 14:51 | 49.14743 | 3.40762 | 33228 ft | 455 kts | 323° |
| 2026-04-26 14:52 | 49.19821 | 3.35110 | 33228 ft | 455 kts | 323° |
| 2026-04-26 14:52 | 49.24854 | 3.29492 | 33225 ft | 454 kts | 323° |
| 2026-04-26 14:53 | 49.29958 | 3.23786 | 33227 ft | 455 kts | 323° |
| 2026-04-26 14:53 | 49.35067 | 3.18055 | 33231 ft | 455 kts | 323° |
| 2026-04-26 14:54 | 49.40132 | 3.12359 | 33229 ft | 455 kts | 323° |
| 2026-04-26 14:54 | 49.45239 | 3.06601 | 33229 ft | 456 kts | 323° |
| 2026-04-26 14:55 | 49.50348 | 3.00825 | 33235 ft | 456 kts | 322° |
| 2026-04-26 14:55 | 49.55462 | 2.95027 | 33232 ft | 457 kts | 322° |
| 2026-04-26 14:56 | 49.60544 | 2.89250 | 33232 ft | 457 kts | 322° |
| 2026-04-26 14:56 | 49.65653 | 2.83428 | 33230 ft | 457 kts | 322° |
| 2026-04-26 14:57 | 49.70765 | 2.77587 | 33235 ft | 457 kts | 322° |
| 2026-04-26 14:57 | 49.75874 | 2.71732 | 33236 ft | 457 kts | 322° |
| 2026-04-26 14:58 | 49.81004 | 2.65897 | 33241 ft | 459 kts | 323° |
| 2026-04-26 14:58 | 49.86174 | 2.60188 | 33243 ft | 459 kts | 323° |
| 2026-04-26 14:59 | 49.91382 | 2.54442 | 33240 ft | 459 kts | 323° |
| 2026-04-26 14:59 | 49.96578 | 2.48666 | 33265 ft | 459 kts | 323° |
| 2026-04-26 15:00 | 50.01770 | 2.42860 | 33259 ft | 460 kts | 323° |
| 2026-04-26 15:00 | 50.06919 | 2.37083 | 33259 ft | 459 kts | 323° |
| 2026-04-26 15:01 | 50.12099 | 2.31258 | 33255 ft | 459 kts | 323° |
| 2026-04-26 15:01 | 50.17285 | 2.25411 | 33259 ft | 461 kts | 322° |
| 2026-04-26 15:02 | 50.22489 | 2.19526 | 33253 ft | 463 kts | 322° |
| 2026-04-26 15:02 | 50.27700 | 2.13620 | 33256 ft | 463 kts | 322° |
| 2026-04-26 15:03 | 50.32907 | 2.07702 | 33257 ft | 463 kts | 322° |
| 2026-04-26 15:03 | 50.38073 | 2.01806 | 33256 ft | 462 kts | 322° |
| 2026-04-26 15:04 | 50.43006 | 1.95368 | 33262 ft | 461 kts | 317° |
| 2026-04-26 15:04 | 50.47760 | 1.88627 | 33262 ft | 461 kts | 316° |
| 2026-04-26 15:05 | 50.52544 | 1.81921 | 33268 ft | 462 kts | 317° |
| 2026-04-26 15:05 | 50.57353 | 1.75288 | 33265 ft | 464 kts | 317° |
| 2026-04-26 15:06 | 50.62217 | 1.68609 | 33267 ft | 464 kts | 317° |
| 2026-04-26 15:06 | 50.67076 | 1.61923 | 33271 ft | 464 kts | 317° |
| 2026-04-26 15:07 | 50.74346 | 1.51857 | 33276 ft | 464 kts | 317° |
| 2026-04-26 15:07 | 50.79151 | 1.45174 | 33284 ft | 464 kts | 317° |
| 2026-04-26 15:08 | 50.83991 | 1.38433 | 33299 ft | 464 kts | 316° |
| 2026-04-26 15:08 | 50.88854 | 1.31640 | 33305 ft | 466 kts | 316° |
| 2026-04-26 15:09 | 50.93712 | 1.24835 | 33309 ft | 466 kts | 316° |
| 2026-04-26 15:09 | 50.98569 | 1.18013 | 33314 ft | 466 kts | 316° |
| 2026-04-26 15:10 | 51.02563 | 1.12262 | 33312 ft | 465 kts | 313° |
| 2026-04-26 15:10 | 51.05307 | 1.06982 | 33314 ft | 462 kts | 302° |
| 2026-04-26 15:10 | 51.06882 | 1.02626 | 33316 ft | 461 kts | 294° |
| 2026-04-26 15:11 | 51.09000 | 0.93051 | 33283 ft | 459 kts | 286° |
| 2026-04-26 15:11 | 51.10735 | 0.83234 | 33264 ft | 462 kts | 285° |
| 2026-04-26 15:12 | 51.12417 | 0.73362 | 33243 ft | 462 kts | 285° |
| 2026-04-26 15:12 | 51.14102 | 0.63562 | 33225 ft | 462 kts | 285° |
| 2026-04-26 15:13 | 51.15717 | 0.53670 | 33210 ft | 462 kts | 280° |
| 2026-04-26 15:13 | 51.16030 | 0.43487 | 33211 ft | 462 kts | 264° |
| 2026-04-26 15:14 | 51.15122 | 0.33361 | 33211 ft | 462 kts | 261° |
| 2026-04-26 15:14 | 51.14004 | 0.23295 | 33221 ft | 462 kts | 261° |
| 2026-04-26 15:15 | 51.12864 | 0.13232 | 33235 ft | 462 kts | 261° |
| 2026-04-26 15:15 | 51.11747 | 0.03240 | 33252 ft | 462 kts | 261° |
| 2026-04-26 15:16 | 51.10627 | -0.06821 | 33292 ft | 462 kts | 261° |
| 2026-04-26 15:16 | 51.09501 | -0.16872 | 33292 ft | 462 kts | 260° |
| 2026-04-26 15:17 | 51.08556 | -0.25230 | 33292 ft | 462 kts | 260° |
| 2026-04-26 15:17 | 51.07223 | -0.36921 | 33289 ft | 462 kts | 260° |
| 2026-04-26 15:18 | 51.06068 | -0.46964 | 33286 ft | 462 kts | 260° |
| 2026-04-26 15:18 | 51.04905 | -0.56999 | 33282 ft | 462 kts | 260° |
| 2026-04-26 15:19 | 51.03733 | -0.67038 | 33283 ft | 462 kts | 260° |
| 2026-04-26 15:19 | 51.02553 | -0.77070 | 33282 ft | 462 kts | 260° |
| 2026-04-26 15:20 | 51.01363 | -0.87092 | 33281 ft | 462 kts | 260° |
| 2026-04-26 15:20 | 51.00174 | -0.97040 | 33283 ft | 462 kts | 259° |
| 2026-04-26 15:21 | 50.98965 | -1.07084 | 33287 ft | 463 kts | 259° |
| 2026-04-26 15:21 | 50.97746 | -1.17122 | 33291 ft | 464 kts | 259° |
| 2026-04-26 15:22 | 50.96517 | -1.27166 | 33292 ft | 464 kts | 259° |
| 2026-04-26 15:22 | 50.95282 | -1.37202 | 33292 ft | 463 kts | 259° |
| 2026-04-26 15:23 | 50.94025 | -1.47150 | 33293 ft | 463 kts | 259° |
| 2026-04-26 15:23 | 50.92734 | -1.57160 | 33291 ft | 463 kts | 259° |
| 2026-04-26 15:24 | 50.91438 | -1.67165 | 33291 ft | 463 kts | 259° |
| 2026-04-26 15:24 | 50.90137 | -1.77173 | 33291 ft | 463 kts | 259° |
| 2026-04-26 15:25 | 50.89053 | -1.85475 | 33292 ft | 463 kts | 259° |
| 2026-04-26 15:25 | 50.87526 | -1.97080 | 33283 ft | 463 kts | 258° |
| 2026-04-26 15:26 | 50.86209 | -2.07055 | 33281 ft | 463 kts | 258° |
| 2026-04-26 15:26 | 50.84877 | -2.17012 | 33280 ft | 463 kts | 258° |
| 2026-04-26 15:27 | 50.83535 | -2.26965 | 33275 ft | 462 kts | 258° |
| 2026-04-26 15:27 | 50.82187 | -2.36916 | 33275 ft | 462 kts | 258° |
| 2026-04-26 15:28 | 50.80841 | -2.46785 | 33271 ft | 462 kts | 258° |
| 2026-04-26 15:28 | 50.79936 | -2.56833 | 33273 ft | 462 kts | 269° |
| 2026-04-26 15:29 | 50.80020 | -2.66994 | 33268 ft | 463 kts | 271° |
| 2026-04-26 15:30 | 50.80530 | -2.87383 | 33270 ft | 464 kts | 271° |
| 2026-04-26 15:30 | 50.80761 | -2.97520 | 33270 ft | 465 kts | 271° |
| 2026-04-26 15:31 | 50.81076 | -3.12841 | 33268 ft | 465 kts | 271° |
| 2026-04-26 15:32 | 50.81306 | -3.24711 | 33266 ft | 465 kts | 271° |
| 2026-04-26 15:32 | 50.81556 | -3.38325 | 33264 ft | 465 kts | 270° |
| 2026-04-26 15:33 | 50.81732 | -3.48554 | 33266 ft | 466 kts | 270° |
| 2026-04-26 15:33 | 50.81899 | -3.58791 | 33264 ft | 466 kts | 270° |
| 2026-04-26 15:34 | 50.82058 | -3.69023 | 33268 ft | 466 kts | 270° |
| 2026-04-26 15:34 | 50.82209 | -3.79261 | 33260 ft | 466 kts | 269° |
| 2026-04-26 15:35 | 50.82350 | -3.89450 | 33257 ft | 467 kts | 269° |
| 2026-04-26 15:35 | 50.82741 | -3.99697 | 33254 ft | 468 kts | 274° |
| 2026-04-26 15:36 | 50.83455 | -4.09950 | 33254 ft | 469 kts | 274° |
| 2026-04-26 15:36 | 50.84143 | -4.20190 | 33254 ft | 468 kts | 274° |
| 2026-04-26 15:37 | 50.84764 | -4.30456 | 33252 ft | 469 kts | 272° |
| 2026-04-26 15:37 | 50.85345 | -4.40677 | 33255 ft | 470 kts | 272° |
| 2026-04-26 15:38 | 50.85918 | -4.50989 | 33255 ft | 470 kts | 272° |
| 2026-04-26 15:38 | 50.86485 | -4.61290 | 33260 ft | 470 kts | 272° |
| 2026-04-26 15:39 | 50.87054 | -4.71597 | 33278 ft | 470 kts | 271° |
| 2026-04-26 15:39 | 50.87420 | -4.78433 | 33265 ft | 471 kts | 271° |
| 2026-04-26 15:40 | 50.88139 | -4.92195 | 33266 ft | 471 kts | 271° |
| 2026-04-26 15:40 | 50.88672 | -5.02540 | 33265 ft | 471 kts | 271° |
| 2026-04-26 15:41 | 50.89197 | -5.12883 | 33262 ft | 471 kts | 271° |
| 2026-04-26 15:41 | 50.89714 | -5.23235 | 33262 ft | 471 kts | 271° |
| 2026-04-26 15:42 | 50.90217 | -5.33501 | 33265 ft | 471 kts | 271° |
| 2026-04-26 15:42 | 50.90714 | -5.43858 | 33265 ft | 471 kts | 271° |
| 2026-04-26 15:43 | 50.91203 | -5.54208 | 33268 ft | 471 kts | 271° |
| 2026-04-26 15:44 | 50.91919 | -5.69744 | 33275 ft | 472 kts | 270° |
| 2026-04-26 15:44 | 50.92613 | -5.85279 | 33272 ft | 474 kts | 270° |
| 2026-04-26 15:45 | 50.93291 | -6.00909 | 33274 ft | 474 kts | 270° |
| 2026-04-26 15:46 | 50.93945 | -6.16467 | 33281 ft | 474 kts | 270° |
| 2026-04-26 15:46 | 50.94232 | -6.23460 | 33279 ft | 476 kts | 270° |
| 2026-04-26 15:47 | 50.94991 | -6.42487 | 33273 ft | 476 kts | 270° |
| 2026-04-26 15:48 | 50.95395 | -6.52956 | 33270 ft | 476 kts | 270° |
| 2026-04-26 15:48 | 50.95789 | -6.63363 | 33293 ft | 476 kts | 270° |
| 2026-04-26 15:49 | 50.96177 | -6.73873 | 33277 ft | 478 kts | 270° |
| 2026-04-26 15:49 | 50.96557 | -6.84403 | 33275 ft | 478 kts | 270° |
| 2026-04-26 15:50 | 50.96927 | -6.94939 | 33283 ft | 478 kts | 270° |
| 2026-04-26 15:50 | 50.97287 | -7.05486 | 33283 ft | 478 kts | 270° |
| 2026-04-26 15:51 | 50.97635 | -7.15956 | 33281 ft | 479 kts | 271° |
| 2026-04-26 15:51 | 50.97977 | -7.26530 | 33279 ft | 480 kts | 270° |
| 2026-04-26 15:52 | 50.98309 | -7.37121 | 33277 ft | 480 kts | 270° |
| 2026-04-26 15:52 | 50.98633 | -7.47711 | 33281 ft | 480 kts | 270° |
| 2026-04-26 15:53 | 50.98947 | -7.58297 | 33295 ft | 480 kts | 271° |
| 2026-04-26 15:53 | 50.99250 | -7.68850 | 33285 ft | 483 kts | 270° |
| 2026-04-26 15:54 | 50.99544 | -7.79491 | 33288 ft | 483 kts | 270° |
| 2026-04-26 15:54 | 50.99831 | -7.90150 | 33287 ft | 483 kts | 270° |
| 2026-04-26 15:55 | 51.00349 | -8.00779 | 33290 ft | 485 kts | 278° |
| 2026-04-26 15:55 | 51.01764 | -8.11200 | 33292 ft | 487 kts | 281° |
| 2026-04-26 15:56 | 51.03358 | -8.21680 | 33295 ft | 488 kts | 282° |
| 2026-04-26 15:56 | 51.04969 | -8.32164 | 33290 ft | 488 kts | 282° |
| 2026-04-26 15:57 | 51.06543 | -8.42574 | 33291 ft | 487 kts | 282° |
| 2026-04-26 15:57 | 51.08106 | -8.53051 | 33291 ft | 487 kts | 282° |
| 2026-04-26 15:58 | 51.09658 | -8.63540 | 33296 ft | 487 kts | 282° |
| 2026-04-26 15:58 | 51.11202 | -8.74041 | 33278 ft | 487 kts | 282° |
| 2026-04-26 15:59 | 51.12733 | -8.82673 | 33299 ft | 488 kts | 291° |
| 2026-04-26 15:59 | 51.14773 | -8.89047 | 33283 ft | 490 kts | 302° |
| 2026-04-26 15:59 | 51.16862 | -8.93344 | 33301 ft | 492 kts | 312° |
| 2026-04-26 16:00 | 51.21201 | -8.99208 | 33300 ft | 494 kts | 323° |
| 2026-04-26 16:00 | 51.43701 | -9.24715 | 33295 ft | 24845 kts | 324° |
| 2026-04-26 16:00 | 52.83784 | -10.86409 | 33332 ft | 24845 kts | 324° |
| 2026-04-26 16:00 | 53.96573 | -12.20430 | 33404 ft | 494 kts | 324° |
| 2026-04-26 16:01 | 53.99250 | -12.24003 | 33421 ft | 484 kts | 317° |
| 2026-04-26 16:01 | 54.01694 | -12.27821 | 33279 ft | 472 kts | 315° |
| 2026-04-26 16:01 | 54.04864 | -12.32823 | 33279 ft | 468 kts | 316° |
| 2026-04-26 16:02 | 54.09838 | -12.39969 | 33278 ft | 468 kts | 320° |
| 2026-04-26 16:02 | 55.04149 | -13.76077 | 33382 ft | 24797 kts | 319° |
| 2026-04-26 16:02 | 55.20284 | -14.02046 | 33515 ft | 465 kts | 322° |
| 2026-04-26 16:03 | 55.24120 | -14.05248 | 33418 ft | 463 kts | 343° |
| 2026-04-26 16:03 | 55.27306 | -14.06040 | 33245 ft | 463 kts | 352° |
| 2026-04-26 16:03 | 55.30503 | -14.06658 | 33240 ft | 461 kts | 347° |
| 2026-04-26 16:03 | 55.34568 | -14.08641 | 33248 ft | 455 kts | 335° |
| 2026-04-26 16:04 | 55.36502 | -14.10210 | 33247 ft | 453 kts | 329° |
| 2026-04-26 16:04 | 55.41697 | -14.16221 | 33250 ft | 449 kts | 321° |
| 2026-04-26 16:05 | 55.46543 | -14.23123 | 33248 ft | 448 kts | 319° |
| 2026-04-26 16:05 | 55.51345 | -14.30109 | 33246 ft | 446 kts | 319° |
| 2026-04-26 16:06 | 55.56162 | -14.36995 | 33246 ft | 445 kts | 320° |
| 2026-04-26 16:06 | 55.60964 | -14.43795 | 33238 ft | 445 kts | 320° |
| 2026-04-26 16:07 | 55.65801 | -14.50639 | 33241 ft | 445 kts | 320° |
| 2026-04-26 16:07 | 55.70632 | -14.57505 | 33236 ft | 445 kts | 320° |
| 2026-04-26 16:08 | 55.75445 | -14.64382 | 33232 ft | 443 kts | 319° |
| 2026-04-26 16:08 | 55.80205 | -14.71202 | 33233 ft | 442 kts | 319° |
| 2026-04-26 16:09 | 55.84997 | -14.78090 | 32855 ft | 442 kts | 319° |
| 2026-04-26 16:09 | 55.87385 | -14.81529 | 32754 ft | 443 kts | 319° |
| 2026-04-26 16:09 | 55.89780 | -14.84985 | 33034 ft | 441 kts | 320° |
| 2026-04-26 16:09 | 55.92154 | -14.88415 | 33218 ft | 438 kts | 320° |
| 2026-04-26 16:10 | 55.94397 | -14.92058 | 33241 ft | 435 kts | 313° |
| 2026-04-26 16:10 | 55.97955 | -15.00607 | 33227 ft | 432 kts | 299° |
| 2026-04-26 16:11 | 56.00021 | -15.10695 | 33227 ft | 436 kts | 284° |
| 2026-04-26 16:11 | 56.00587 | -15.21528 | 33225 ft | 440 kts | 277° |
| 2026-04-26 16:12 | 56.00771 | -15.32456 | 33222 ft | 440 kts | 276° |
| 2026-04-26 16:12 | 56.00987 | -15.48777 | 33208 ft | 440 kts | 276° |
| 2026-04-26 16:13 | 56.01149 | -15.59688 | 33219 ft | 438 kts | 276° |
| 2026-04-26 16:13 | 56.01313 | -15.70577 | 33219 ft | 438 kts | 276° |
| 2026-04-26 16:14 | 56.01468 | -15.81449 | 33219 ft | 438 kts | 276° |
| 2026-04-26 16:15 | 56.01680 | -15.97705 | 33219 ft | 438 kts | 276° |
| 2026-04-26 16:15 | 56.01810 | -16.08593 | 33179 ft | 438 kts | 276° |
| 2026-04-26 16:16 | 56.01982 | -16.24847 | 33215 ft | 435 kts | 276° |
| 2026-04-26 16:16 | 56.02088 | -16.35646 | 33216 ft | 435 kts | 276° |
| 2026-04-26 16:17 | 56.02182 | -16.46360 | 33213 ft | 432 kts | 276° |
| 2026-04-26 16:17 | 56.02267 | -16.57083 | 33214 ft | 431 kts | 276° |
| 2026-04-26 16:18 | 56.02378 | -16.73146 | 33210 ft | 431 kts | 276° |
| 2026-04-26 16:19 | 56.02467 | -16.89107 | 33211 ft | 430 kts | 276° |
| 2026-04-26 16:20 | 56.02537 | -17.05127 | 33213 ft | 430 kts | 276° |
| 2026-04-26 16:20 | 56.02587 | -17.21158 | 33213 ft | 430 kts | 276° |
| 2026-04-26 16:21 | 56.02607 | -17.31772 | 33208 ft | 430 kts | 276° |
| 2026-04-26 16:21 | 56.02617 | -17.42452 | 33210 ft | 429 kts | 276° |
| 2026-04-26 16:22 | 56.02619 | -17.53129 | 33221 ft | 429 kts | 276° |
| 2026-04-26 16:22 | 56.02611 | -17.63801 | 33208 ft | 429 kts | 275° |
| 2026-04-26 16:23 | 56.02596 | -17.74472 | 33205 ft | 429 kts | 275° |
| 2026-04-26 16:23 | 56.02571 | -17.85080 | 33201 ft | 429 kts | 275° |
| 2026-04-26 16:24 | 56.02536 | -17.95757 | 33205 ft | 430 kts | 275° |
| 2026-04-26 16:24 | 56.02492 | -18.06438 | 33212 ft | 430 kts | 275° |
| 2026-04-26 16:25 | 56.02438 | -18.17117 | 33210 ft | 430 kts | 275° |
| 2026-04-26 16:25 | 56.02376 | -18.27799 | 33215 ft | 430 kts | 275° |
| 2026-04-26 16:26 | 56.02303 | -18.38366 | 33206 ft | 427 kts | 275° |
| 2026-04-26 16:26 | 56.02223 | -18.48976 | 33213 ft | 427 kts | 274° |
| 2026-04-26 16:27 | 56.02134 | -18.59626 | 33198 ft | 429 kts | 274° |
| 2026-04-26 16:27 | 56.02035 | -18.70302 | 33212 ft | 430 kts | 274° |
| 2026-04-26 16:28 | 56.01926 | -18.80910 | 33210 ft | 430 kts | 274° |
| 2026-04-26 16:28 | 56.01809 | -18.91592 | 33204 ft | 430 kts | 274° |
| 2026-04-26 16:29 | 56.01682 | -19.02280 | 33207 ft | 430 kts | 274° |
| 2026-04-26 16:29 | 56.01547 | -19.12976 | 33201 ft | 432 kts | 273° |
| 2026-04-26 16:30 | 56.01400 | -19.23715 | 33206 ft | 433 kts | 273° |
| 2026-04-26 16:30 | 56.01244 | -19.34394 | 33208 ft | 433 kts | 273° |
| 2026-04-26 16:31 | 56.01079 | -19.45137 | 33205 ft | 433 kts | 273° |
| 2026-04-26 16:31 | 56.00904 | -19.55898 | 33197 ft | 433 kts | 273° |
| 2026-04-26 16:32 | 56.00753 | -19.64832 | 33191 ft | 433 kts | 272° |
| 2026-04-26 16:32 | 56.00529 | -19.77290 | 33204 ft | 430 kts | 272° |
| 2026-04-26 16:33 | 56.00327 | -19.87969 | 33202 ft | 430 kts | 272° |
| 2026-04-26 16:33 | 56.00148 | -19.98657 | 33205 ft | 429 kts | 275° |
| 2026-04-26 16:34 | 56.00453 | -20.09264 | 33202 ft | 428 kts | 277° |
| 2026-04-26 16:34 | 56.00857 | -20.19766 | 33202 ft | 425 kts | 277° |
| 2026-04-26 16:35 | 56.01275 | -20.30275 | 33202 ft | 424 kts | 277° |
| 2026-04-26 16:35 | 56.01678 | -20.40769 | 33194 ft | 424 kts | 277° |
| 2026-04-26 16:36 | 56.02066 | -20.51272 | 33192 ft | 424 kts | 277° |
| 2026-04-26 16:36 | 56.02443 | -20.61783 | 33193 ft | 424 kts | 277° |
| 2026-04-26 16:37 | 56.02808 | -20.72223 | 33192 ft | 424 kts | 276° |
| 2026-04-26 16:37 | 56.03167 | -20.82735 | 33191 ft | 424 kts | 276° |
| 2026-04-26 16:38 | 56.03518 | -20.93245 | 33186 ft | 424 kts | 276° |
| 2026-04-26 16:38 | 56.03861 | -21.03776 | 33187 ft | 424 kts | 276° |
| 2026-04-26 16:39 | 56.04192 | -21.14236 | 33184 ft | 424 kts | 276° |
| 2026-04-26 16:39 | 56.04516 | -21.24768 | 33184 ft | 424 kts | 276° |
| 2026-04-26 16:40 | 56.04832 | -21.35292 | 33184 ft | 424 kts | 276° |
| 2026-04-26 16:40 | 56.05139 | -21.45833 | 33189 ft | 424 kts | 276° |
| 2026-04-26 16:41 | 56.05436 | -21.56314 | 33180 ft | 422 kts | 275° |
| 2026-04-26 16:41 | 56.05721 | -21.66745 | 33171 ft | 423 kts | 275° |
| 2026-04-26 16:42 | 56.05995 | -21.77253 | 33170 ft | 423 kts | 275° |
| 2026-04-26 16:42 | 56.06262 | -21.87773 | 33168 ft | 423 kts | 275° |
| 2026-04-26 16:43 | 56.06521 | -21.98223 | 33168 ft | 423 kts | 275° |
| 2026-04-26 16:43 | 56.06773 | -22.08748 | 33168 ft | 423 kts | 274° |
| 2026-04-26 16:44 | 56.07019 | -22.19286 | 33160 ft | 426 kts | 274° |
| 2026-04-26 16:44 | 56.07257 | -22.29910 | 33159 ft | 427 kts | 274° |
| 2026-04-26 16:45 | 56.07484 | -22.40538 | 33154 ft | 427 kts | 274° |
| 2026-04-26 16:45 | 56.07700 | -22.51099 | 33148 ft | 428 kts | 274° |
| 2026-04-26 16:46 | 56.07912 | -22.61735 | 33151 ft | 428 kts | 274° |
| 2026-04-26 16:46 | 56.08112 | -22.72384 | 33146 ft | 428 kts | 274° |
| 2026-04-26 16:47 | 56.08303 | -22.83030 | 33143 ft | 427 kts | 272° |
| 2026-04-26 16:47 | 56.08482 | -22.93559 | 33141 ft | 425 kts | 272° |
| 2026-04-26 16:48 | 56.08653 | -23.04120 | 33141 ft | 424 kts | 272° |
| 2026-04-26 16:48 | 56.08818 | -23.14690 | 33130 ft | 425 kts | 272° |
| 2026-04-26 16:49 | 56.08973 | -23.25260 | 33127 ft | 425 kts | 272° |
| 2026-04-26 16:49 | 56.09117 | -23.35761 | 33127 ft | 425 kts | 272° |
| 2026-04-26 16:50 | 56.09252 | -23.46379 | 33123 ft | 431 kts | 272° |
| 2026-04-26 16:50 | 56.09383 | -23.57137 | 33117 ft | 432 kts | 272° |
| 2026-04-26 16:51 | 56.09501 | -23.67901 | 33112 ft | 432 kts | 272° |
| 2026-04-26 16:51 | 56.09610 | -23.78587 | 33114 ft | 432 kts | 272° |
| 2026-04-26 16:52 | 56.09695 | -23.87604 | 33108 ft | 432 kts | 272° |
| 2026-04-26 16:52 | 56.09803 | -24.00119 | 33105 ft | 432 kts | 271° |
| 2026-04-26 16:53 | 56.09886 | -24.10889 | 33115 ft | 433 kts | 271° |
| 2026-04-26 16:53 | 56.09959 | -24.21644 | 33091 ft | 431 kts | 271° |
| 2026-04-26 16:54 | 56.10022 | -24.32283 | 33092 ft | 430 kts | 271° |
| 2026-04-26 16:54 | 56.10076 | -24.43005 | 33086 ft | 430 kts | 271° |
| 2026-04-26 16:55 | 56.10121 | -24.53715 | 33086 ft | 430 kts | 271° |
| 2026-04-26 16:55 | 56.10156 | -24.64429 | 33083 ft | 430 kts | 270° |
| 2026-04-26 16:56 | 56.10192 | -24.80417 | 33073 ft | 429 kts | 270° |
| 2026-04-26 16:57 | 56.10204 | -24.91111 | 33067 ft | 429 kts | 270° |
| 2026-04-26 16:57 | 56.10195 | -25.07155 | 33067 ft | 429 kts | 270° |
| 2026-04-26 16:58 | 56.10174 | -25.16050 | 33059 ft | 429 kts | 270° |
| 2026-04-26 16:59 | 56.10131 | -25.33834 | 33050 ft | 430 kts | 269° |
| 2026-04-26 17:00 | 56.10057 | -25.55280 | 33043 ft | 431 kts | 269° |
| 2026-04-26 17:00 | 56.09975 | -25.71295 | 33040 ft | 430 kts | 269° |
| 2026-04-26 17:01 | 56.09907 | -25.82014 | 33029 ft | 430 kts | 269° |
| 2026-04-26 17:01 | 56.09832 | -25.92731 | 33022 ft | 431 kts | 268° |
| 2026-04-26 17:02 | 56.09748 | -26.03468 | 33020 ft | 431 kts | 268° |
| 2026-04-26 17:02 | 56.09653 | -26.14196 | 33015 ft | 431 kts | 268° |
| 2026-04-26 17:03 | 56.09550 | -26.24847 | 33015 ft | 431 kts | 268° |
| 2026-04-26 17:03 | 56.09436 | -26.35576 | 33015 ft | 431 kts | 268° |
| 2026-04-26 17:04 | 56.09314 | -26.46305 | 33007 ft | 431 kts | 268° |
| 2026-04-26 17:04 | 56.09182 | -26.57037 | 33008 ft | 431 kts | 267° |
| 2026-04-26 17:05 | 56.09042 | -26.67708 | 33002 ft | 432 kts | 267° |
| 2026-04-26 17:05 | 56.08893 | -26.78304 | 33015 ft | 429 kts | 266° |
| 2026-04-26 17:06 | 56.08731 | -26.88974 | 32985 ft | 429 kts | 266° |
| 2026-04-26 17:06 | 56.08566 | -26.99666 | 32985 ft | 430 kts | 266° |
| 2026-04-26 17:07 | 56.08392 | -27.10292 | 32988 ft | 430 kts | 266° |
| 2026-04-26 17:07 | 56.08207 | -27.20977 | 32981 ft | 429 kts | 266° |
| 2026-04-26 17:08 | 56.08010 | -27.31659 | 32971 ft | 429 kts | 265° |
| 2026-04-26 17:08 | 56.07808 | -27.42331 | 32953 ft | 429 kts | 265° |
| 2026-04-26 17:09 | 56.07629 | -27.51194 | 32965 ft | 429 kts | 265° |
| 2026-04-26 17:09 | 56.07371 | -27.63584 | 32947 ft | 429 kts | 265° |
| 2026-04-26 17:10 | 56.07137 | -27.74251 | 32956 ft | 429 kts | 265° |
| 2026-04-26 17:10 | 56.06899 | -27.84908 | 32958 ft | 428 kts | 264° |
| 2026-04-26 17:11 | 56.06650 | -27.95545 | 32935 ft | 428 kts | 264° |
| 2026-04-26 17:11 | 56.06392 | -28.06098 | 32943 ft | 428 kts | 264° |
| 2026-04-26 17:12 | 56.05988 | -28.22041 | 32936 ft | 426 kts | 264° |
| 2026-04-26 17:13 | 56.05565 | -28.37908 | 32936 ft | 425 kts | 264° |
| 2026-04-26 17:14 | 56.05122 | -28.53712 | 32922 ft | 426 kts | 263° |
| 2026-04-26 17:14 | 56.04655 | -28.69603 | 32919 ft | 426 kts | 263° |
| 2026-04-26 17:15 | 56.04170 | -28.85494 | 32921 ft | 426 kts | 263° |
| 2026-04-26 17:16 | 56.03837 | -28.96010 | 32910 ft | 426 kts | 263° |
| 2026-04-26 17:16 | 56.03492 | -29.06598 | 32910 ft | 426 kts | 262° |
| 2026-04-26 17:17 | 56.03139 | -29.17181 | 32902 ft | 427 kts | 262° |
| 2026-04-26 17:17 | 56.02776 | -29.27772 | 32903 ft | 427 kts | 262° |
| 2026-04-26 17:18 | 56.02408 | -29.38289 | 32903 ft | 427 kts | 262° |
| 2026-04-26 17:18 | 56.02027 | -29.48866 | 32898 ft | 426 kts | 262° |
| 2026-04-26 17:19 | 56.01440 | -29.64709 | 32909 ft | 425 kts | 261° |
| 2026-04-26 17:19 | 56.01039 | -29.75260 | 32887 ft | 425 kts | 261° |
| 2026-04-26 17:20 | 56.00698 | -29.84017 | 32890 ft | 425 kts | 261° |
| 2026-04-26 17:20 | 56.00215 | -29.96265 | 32887 ft | 426 kts | 261° |
| 2026-04-26 17:21 | 56.00332 | -30.06905 | 32885 ft | 431 kts | 267° |
| 2026-04-26 17:21 | 56.00728 | -30.17601 | 32882 ft | 431 kts | 268° |
| 2026-04-26 17:22 | 56.01162 | -30.28296 | 32884 ft | 432 kts | 268° |
| 2026-04-26 17:22 | 56.01577 | -30.38922 | 32876 ft | 431 kts | 268° |
| 2026-04-26 17:23 | 56.01974 | -30.49615 | 32864 ft | 431 kts | 268° |
| 2026-04-26 17:23 | 56.02359 | -30.60311 | 32868 ft | 431 kts | 268° |
| 2026-04-26 17:24 | 56.02734 | -30.71009 | 32871 ft | 431 kts | 267° |
| 2026-04-26 17:24 | 56.03099 | -30.81627 | 32864 ft | 431 kts | 267° |
| 2026-04-26 17:25 | 56.03451 | -30.92148 | 32867 ft | 431 kts | 266° |
| 2026-04-26 17:25 | 56.03623 | -30.97418 | 32881 ft | 415 kts | 267° |
| 2026-04-26 17:25 | 56.03798 | -31.02472 | 32867 ft | 401 kts | 266° |
| 2026-04-26 17:26 | 56.04116 | -31.12607 | 32854 ft | 415 kts | 266° |
| 2026-04-26 17:26 | 56.04423 | -31.23022 | 32852 ft | 429 kts | 266° |
| 2026-04-26 17:27 | 56.04744 | -31.33744 | 32850 ft | 432 kts | 266° |
| 2026-04-26 17:27 | 56.05065 | -31.44453 | 32851 ft | 431 kts | 266° |
| 2026-04-26 17:28 | 56.05373 | -31.55156 | 32845 ft | 431 kts | 266° |
| 2026-04-26 17:28 | 56.05668 | -31.65862 | 32846 ft | 430 kts | 266° |
| 2026-04-26 17:29 | 56.05905 | -31.74747 | 32840 ft | 430 kts | 265° |
| 2026-04-26 17:29 | 56.06224 | -31.87174 | 32837 ft | 430 kts | 265° |
| 2026-04-26 17:30 | 56.06490 | -31.97863 | 32838 ft | 430 kts | 265° |
| 2026-04-26 17:30 | 56.06744 | -32.08543 | 32833 ft | 430 kts | 265° |
| 2026-04-26 17:31 | 56.06991 | -32.19227 | 32823 ft | 430 kts | 265° |
| 2026-04-26 17:31 | 56.07230 | -32.29839 | 32827 ft | 430 kts | 265° |
| 2026-04-26 17:32 | 56.07457 | -32.40520 | 32821 ft | 429 kts | 265° |
| 2026-04-26 17:32 | 56.07676 | -32.51176 | 32813 ft | 428 kts | 264° |
| 2026-04-26 17:33 | 56.07884 | -32.61818 | 32834 ft | 428 kts | 264° |
| 2026-04-26 17:34 | 56.08180 | -32.77675 | 32806 ft | 426 kts | 264° |
| 2026-04-26 17:34 | 56.08367 | -32.88283 | 32795 ft | 426 kts | 264° |
| 2026-04-26 17:35 | 56.08545 | -32.98891 | 32799 ft | 426 kts | 264° |
| 2026-04-26 17:35 | 56.08714 | -33.09435 | 32805 ft | 426 kts | 263° |
| 2026-04-26 17:36 | 56.08872 | -33.20018 | 32794 ft | 425 kts | 263° |
| 2026-04-26 17:36 | 56.09020 | -33.30583 | 32793 ft | 424 kts | 263° |
| 2026-04-26 17:37 | 56.09160 | -33.41147 | 32792 ft | 424 kts | 263° |
| 2026-04-26 17:37 | 56.09290 | -33.51646 | 32788 ft | 424 kts | 263° |
| 2026-04-26 17:38 | 56.09471 | -33.67483 | 32781 ft | 423 kts | 262° |
| 2026-04-26 17:38 | 56.09579 | -33.78017 | 32784 ft | 423 kts | 262° |
| 2026-04-26 17:39 | 56.09678 | -33.88548 | 32780 ft | 423 kts | 262° |
| 2026-04-26 17:39 | 56.09769 | -33.99076 | 32772 ft | 423 kts | 262° |
| 2026-04-26 17:40 | 56.09838 | -34.07820 | 32768 ft | 422 kts | 262° |
| 2026-04-26 17:40 | 56.09922 | -34.20044 | 32768 ft | 422 kts | 261° |
| 2026-04-26 17:41 | 56.09985 | -34.30563 | 32763 ft | 422 kts | 261° |
| 2026-04-26 17:41 | 56.10039 | -34.41077 | 32755 ft | 422 kts | 261° |
| 2026-04-26 17:42 | 56.10086 | -34.51518 | 32754 ft | 422 kts | 261° |
| 2026-04-26 17:42 | 56.10123 | -34.62035 | 32763 ft | 423 kts | 260° |
| 2026-04-26 17:43 | 56.10149 | -34.72635 | 32750 ft | 426 kts | 260° |
| 2026-04-26 17:43 | 56.10167 | -34.83246 | 32741 ft | 426 kts | 260° |
| 2026-04-26 17:44 | 56.10178 | -34.93784 | 32744 ft | 426 kts | 260° |
| 2026-04-26 17:44 | 56.10180 | -35.04376 | 32743 ft | 425 kts | 260° |
| 2026-04-26 17:45 | 56.10172 | -35.14978 | 32757 ft | 426 kts | 259° |
| 2026-04-26 17:45 | 56.10149 | -35.25633 | 32727 ft | 430 kts | 259° |
| 2026-04-26 17:46 | 56.10124 | -35.36360 | 32726 ft | 431 kts | 259° |
| 2026-04-26 17:46 | 56.10090 | -35.47083 | 32723 ft | 430 kts | 259° |
| 2026-04-26 17:47 | 56.10062 | -35.54180 | 32724 ft | 430 kts | 259° |
| 2026-04-26 17:47 | 56.09984 | -35.68622 | 32713 ft | 443 kts | 260° |
| 2026-04-26 17:48 | 56.09916 | -35.79703 | 32729 ft | 445 kts | 260° |
| 2026-04-26 17:48 | 56.09845 | -35.90805 | 32715 ft | 448 kts | 261° |
| 2026-04-26 17:49 | 56.09759 | -36.01912 | 32699 ft | 450 kts | 260° |
| 2026-04-26 17:49 | 56.09665 | -36.13110 | 32705 ft | 450 kts | 260° |
| 2026-04-26 17:50 | 56.09559 | -36.24303 | 32697 ft | 449 kts | 260° |
| 2026-04-26 17:50 | 56.09442 | -36.35497 | 32690 ft | 449 kts | 260° |
| 2026-04-26 17:51 | 56.09316 | -36.46602 | 32688 ft | 449 kts | 260° |
| 2026-04-26 17:51 | 56.09176 | -36.57780 | 32697 ft | 451 kts | 261° |
| 2026-04-26 17:52 | 56.09021 | -36.69089 | 32687 ft | 456 kts | 261° |
| 2026-04-26 17:52 | 56.08863 | -36.80449 | 32690 ft | 456 kts | 261° |
| 2026-04-26 17:53 | 56.08696 | -36.91804 | 32678 ft | 456 kts | 260° |
| 2026-04-26 17:54 | 56.08424 | -37.08739 | 32673 ft | 456 kts | 260° |
| 2026-04-26 17:54 | 56.08226 | -37.20079 | 32684 ft | 455 kts | 260° |
| 2026-04-26 17:55 | 56.08019 | -37.31407 | 32679 ft | 455 kts | 260° |
| 2026-04-26 17:55 | 56.07803 | -37.42660 | 32667 ft | 455 kts | 260° |
| 2026-04-26 17:56 | 56.07575 | -37.53989 | 32689 ft | 456 kts | 261° |
| 2026-04-26 17:57 | 56.07078 | -37.76947 | 32658 ft | 464 kts | 261° |
| 2026-04-26 17:57 | 56.06818 | -37.88472 | 32658 ft | 463 kts | 261° |
| 2026-04-26 17:58 | 56.06257 | -38.11534 | 32652 ft | 467 kts | 261° |
| 2026-04-26 17:59 | 56.05806 | -38.28942 | 32640 ft | 467 kts | 261° |
| 2026-04-26 17:59 | 56.05494 | -38.40534 | 32640 ft | 467 kts | 261° |
| 2026-04-26 18:00 | 56.05172 | -38.52047 | 32638 ft | 466 kts | 261° |
| 2026-04-26 18:00 | 56.04835 | -38.63673 | 32630 ft | 471 kts | 262° |
| 2026-04-26 18:01 | 56.04479 | -38.75453 | 32620 ft | 476 kts | 262° |
| 2026-04-26 18:01 | 56.04112 | -38.87283 | 32617 ft | 477 kts | 262° |
| 2026-04-26 18:02 | 56.03866 | -38.95124 | 32615 ft | 476 kts | 262° |
| 2026-04-26 18:02 | 56.03354 | -39.10862 | 32628 ft | 476 kts | 262° |
| 2026-04-26 18:03 | 56.02954 | -39.22672 | 32618 ft | 476 kts | 261° |
| 2026-04-26 18:03 | 56.02544 | -39.34497 | 32603 ft | 478 kts | 262° |
| 2026-04-26 18:04 | 56.02122 | -39.46301 | 32608 ft | 480 kts | 262° |
| 2026-04-26 18:05 | 56.01460 | -39.64216 | 32594 ft | 484 kts | 262° |
| 2026-04-26 18:05 | 56.01002 | -39.76245 | 32594 ft | 485 kts | 262° |
| 2026-04-26 18:06 | 56.00531 | -39.88272 | 32591 ft | 485 kts | 262° |
| 2026-04-26 18:06 | 56.00179 | -40.00232 | 32599 ft | 488 kts | 268° |
| 2026-04-26 18:07 | 56.00528 | -40.12395 | 32587 ft | 492 kts | 270° |
| 2026-04-26 18:07 | 56.01008 | -40.24603 | 32575 ft | 493 kts | 271° |
| 2026-04-26 18:08 | 56.01492 | -40.36814 | 32578 ft | 493 kts | 270° |
| 2026-04-26 18:08 | 56.01950 | -40.48953 | 32572 ft | 494 kts | 271° |
| 2026-04-26 18:09 | 56.02394 | -40.61250 | 32564 ft | 496 kts | 271° |
| 2026-04-26 18:09 | 56.02823 | -40.73565 | 32561 ft | 496 kts | 271° |
| 2026-04-26 18:10 | 56.03244 | -40.85885 | 32564 ft | 498 kts | 271° |
| 2026-04-26 18:10 | 56.03653 | -40.98177 | 32553 ft | 499 kts | 271° |
| 2026-04-26 18:11 | 56.04051 | -41.10556 | 32552 ft | 499 kts | 271° |
| 2026-04-26 18:11 | 56.04435 | -41.22940 | 32548 ft | 499 kts | 271° |
| 2026-04-26 18:12 | 56.04807 | -41.35407 | 32551 ft | 505 kts | 272° |
| 2026-04-26 18:12 | 56.05166 | -41.47943 | 32551 ft | 504 kts | 272° |
| 2026-04-26 18:13 | 56.05513 | -41.60404 | 32540 ft | 505 kts | 272° |
| 2026-04-26 18:13 | 56.05853 | -41.73006 | 32532 ft | 508 kts | 272° |
| 2026-04-26 18:14 | 56.06179 | -41.85635 | 32534 ft | 509 kts | 272° |
| 2026-04-26 18:14 | 56.06491 | -41.98292 | 32536 ft | 508 kts | 272° |
| 2026-04-26 18:15 | 56.06789 | -42.10853 | 32532 ft | 511 kts | 274° |
| 2026-04-26 18:15 | 56.07086 | -42.23570 | 32512 ft | 510 kts | 274° |
| 2026-04-26 18:16 | 56.07362 | -42.36271 | 32527 ft | 512 kts | 274° |
| 2026-04-26 18:16 | 56.07750 | -42.55315 | 32515 ft | 509 kts | 274° |
| 2026-04-26 18:17 | 56.07998 | -42.67908 | 32512 ft | 510 kts | 274° |
| 2026-04-26 18:17 | 56.08232 | -42.80584 | 32493 ft | 509 kts | 274° |
| 2026-04-26 18:18 | 56.08447 | -42.93246 | 32503 ft | 508 kts | 274° |
| 2026-04-26 18:18 | 56.08653 | -43.05874 | 32503 ft | 507 kts | 274° |
| 2026-04-26 18:19 | 56.08842 | -43.18417 | 32500 ft | 507 kts | 274° |
| 2026-04-26 18:19 | 56.09020 | -43.31036 | 32502 ft | 507 kts | 274° |
| 2026-04-26 18:20 | 56.09187 | -43.43660 | 32501 ft | 507 kts | 274° |
| 2026-04-26 18:20 | 56.09289 | -43.52016 | 32495 ft | 507 kts | 274° |
| 2026-04-26 18:21 | 56.09480 | -43.68891 | 32493 ft | 505 kts | 275° |
| 2026-04-26 18:21 | 56.09606 | -43.81350 | 32493 ft | 503 kts | 275° |
| 2026-04-26 18:22 | 56.09721 | -43.93873 | 32493 ft | 503 kts | 275° |
| 2026-04-26 18:22 | 56.09822 | -44.06406 | 32491 ft | 504 kts | 275° |
| 2026-04-26 18:23 | 56.09910 | -44.18979 | 32488 ft | 505 kts | 275° |
| 2026-04-26 18:23 | 56.09991 | -44.31558 | 32490 ft | 505 kts | 275° |
| 2026-04-26 18:24 | 56.10057 | -44.44062 | 32467 ft | 505 kts | 276° |
| 2026-04-26 18:24 | 56.10110 | -44.56614 | 32495 ft | 504 kts | 276° |
| 2026-04-26 18:25 | 56.10148 | -44.69161 | 32483 ft | 504 kts | 276° |
| 2026-04-26 18:25 | 56.10174 | -44.81709 | 32486 ft | 504 kts | 276° |
| 2026-04-26 18:26 | 56.10186 | -44.94170 | 32489 ft | 504 kts | 276° |
| 2026-04-26 18:26 | 56.10188 | -45.06717 | 32500 ft | 504 kts | 276° |
| 2026-04-26 18:27 | 56.10174 | -45.19271 | 32493 ft | 504 kts | 276° |
| 2026-04-26 18:27 | 56.10146 | -45.31830 | 32497 ft | 504 kts | 276° |
| 2026-04-26 18:28 | 56.10110 | -45.44304 | 32510 ft | 504 kts | 275° |
| 2026-04-26 18:28 | 56.10060 | -45.56855 | 32520 ft | 504 kts | 275° |
| 2026-04-26 18:29 | 56.09997 | -45.69416 | 32514 ft | 505 kts | 276° |
| 2026-04-26 18:29 | 56.09921 | -45.81992 | 32528 ft | 505 kts | 276° |
| 2026-04-26 18:30 | 56.09830 | -45.94578 | 32523 ft | 505 kts | 276° |
| 2026-04-26 18:30 | 56.09722 | -46.07060 | 32528 ft | 502 kts | 277° |
| 2026-04-26 18:31 | 56.09601 | -46.19492 | 32529 ft | 498 kts | 277° |
| 2026-04-26 18:31 | 56.09479 | -46.31880 | 32534 ft | 497 kts | 277° |
| 2026-04-26 18:32 | 56.09346 | -46.44182 | 32543 ft | 498 kts | 277° |
| 2026-04-26 18:32 | 56.09199 | -46.56599 | 32550 ft | 500 kts | 277° |
| 2026-04-26 18:33 | 56.09034 | -46.69044 | 32564 ft | 500 kts | 277° |
| 2026-04-26 18:33 | 56.08859 | -46.81498 | 32564 ft | 500 kts | 277° |
| 2026-04-26 18:34 | 56.08668 | -46.93909 | 32570 ft | 496 kts | 277° |
| 2026-04-26 18:34 | 56.08467 | -47.06148 | 32581 ft | 495 kts | 277° |
| 2026-04-26 18:35 | 56.08258 | -47.18462 | 32581 ft | 495 kts | 277° |
| 2026-04-26 18:35 | 56.08034 | -47.30802 | 32600 ft | 497 kts | 277° |
| 2026-04-26 18:36 | 56.07798 | -47.43180 | 32600 ft | 498 kts | 277° |
| 2026-04-26 18:36 | 56.07551 | -47.55472 | 32606 ft | 498 kts | 277° |
| 2026-04-26 18:37 | 56.07286 | -47.67855 | 32615 ft | 497 kts | 276° |
| 2026-04-26 18:37 | 56.07008 | -47.80163 | 32618 ft | 494 kts | 276° |
| 2026-04-26 18:38 | 56.06724 | -47.92432 | 32624 ft | 493 kts | 276° |
| 2026-04-26 18:38 | 56.06432 | -48.04612 | 32638 ft | 494 kts | 276° |
| 2026-04-26 18:39 | 56.06125 | -48.16933 | 32650 ft | 496 kts | 276° |
| 2026-04-26 18:39 | 56.05802 | -48.29276 | 32658 ft | 497 kts | 276° |
| 2026-04-26 18:40 | 56.05465 | -48.41627 | 32662 ft | 497 kts | 276° |
| 2026-04-26 18:40 | 56.05119 | -48.53858 | 32669 ft | 495 kts | 276° |
| 2026-04-26 18:41 | 56.04760 | -48.66122 | 32684 ft | 493 kts | 276° |
| 2026-04-26 18:41 | 56.04396 | -48.78377 | 32683 ft | 493 kts | 276° |
| 2026-04-26 18:42 | 56.04016 | -48.90662 | 32683 ft | 496 kts | 276° |
| 2026-04-26 18:42 | 56.03688 | -49.00897 | 32704 ft | 496 kts | 276° |
| 2026-04-26 18:43 | 56.03211 | -49.15219 | 32702 ft | 497 kts | 275° |
| 2026-04-26 18:43 | 56.02791 | -49.27535 | 32710 ft | 496 kts | 275° |
| 2026-04-26 18:44 | 56.02433 | -49.37746 | 32719 ft | 494 kts | 275° |
| 2026-04-26 18:44 | 56.01991 | -49.49989 | 32728 ft | 494 kts | 275° |
| 2026-04-26 18:45 | 56.01466 | -49.64230 | 32735 ft | 494 kts | 275° |
| 2026-04-26 18:45 | 56.00999 | -49.76507 | 32743 ft | 496 kts | 275° |
| 2026-04-26 18:46 | 56.00600 | -49.86732 | 32754 ft | 496 kts | 275° |
| 2026-04-26 18:46 | 55.99958 | -49.99047 | 32755 ft | 504 kts | 268° |
| 2026-04-26 18:47 | 55.97814 | -50.13254 | 32762 ft | 511 kts | 261° |
| 2026-04-26 18:47 | 55.95678 | -50.25342 | 32791 ft | 511 kts | 260° |
| 2026-04-26 18:48 | 55.93872 | -50.35366 | 32789 ft | 511 kts | 260° |
| 2026-04-26 18:48 | 55.91700 | -50.47455 | 32784 ft | 512 kts | 260° |
| 2026-04-26 18:49 | 55.89529 | -50.59557 | 32795 ft | 512 kts | 260° |
| 2026-04-26 18:49 | 55.87351 | -50.71648 | 32807 ft | 513 kts | 260° |
| 2026-04-26 18:50 | 55.85174 | -50.83634 | 32815 ft | 513 kts | 260° |
| 2026-04-26 18:50 | 55.82963 | -50.95710 | 32813 ft | 514 kts | 260° |
| 2026-04-26 18:51 | 55.80737 | -51.07813 | 32822 ft | 516 kts | 259° |
| 2026-04-26 18:51 | 55.78494 | -51.19916 | 32840 ft | 514 kts | 259° |
| 2026-04-26 18:52 | 55.76265 | -51.31865 | 32843 ft | 513 kts | 259° |
| 2026-04-26 18:52 | 55.74013 | -51.43876 | 32843 ft | 513 kts | 259° |
| 2026-04-26 18:53 | 55.71749 | -51.55877 | 32857 ft | 513 kts | 259° |
| 2026-04-26 18:53 | 55.69466 | -51.67900 | 32861 ft | 515 kts | 259° |
| 2026-04-26 18:54 | 55.67169 | -51.79919 | 32861 ft | 515 kts | 259° |
| 2026-04-26 18:54 | 55.64876 | -51.91841 | 32861 ft | 515 kts | 259° |
| 2026-04-26 18:55 | 55.62554 | -52.03835 | 32885 ft | 515 kts | 258° |
| 2026-04-26 18:55 | 55.60222 | -52.15816 | 32883 ft | 515 kts | 258° |
| 2026-04-26 18:56 | 55.57884 | -52.27750 | 32889 ft | 512 kts | 258° |
| 2026-04-26 18:56 | 55.55557 | -52.39539 | 32900 ft | 511 kts | 258° |
| 2026-04-26 18:57 | 55.53591 | -52.49458 | 32908 ft | 511 kts | 258° |
| 2026-04-26 18:57 | 55.50851 | -52.63222 | 32908 ft | 511 kts | 258° |
| 2026-04-26 18:58 | 55.48476 | -52.75049 | 32914 ft | 512 kts | 258° |
| 2026-04-26 18:58 | 55.46100 | -52.86815 | 32927 ft | 514 kts | 258° |
| 2026-04-26 18:59 | 55.43690 | -52.98667 | 32933 ft | 514 kts | 257° |
| 2026-04-26 18:59 | 55.41273 | -53.10497 | 32933 ft | 514 kts | 257° |
| 2026-04-26 19:00 | 55.38842 | -53.22325 | 32933 ft | 514 kts | 257° |
| 2026-04-26 19:00 | 55.36403 | -53.34120 | 32954 ft | 513 kts | 257° |
| 2026-04-26 19:01 | 55.33970 | -53.45818 | 32952 ft | 514 kts | 257° |
| 2026-04-26 19:01 | 55.31504 | -53.57598 | 32953 ft | 514 kts | 257° |
| 2026-04-26 19:02 | 55.29029 | -53.69363 | 32977 ft | 514 kts | 257° |
| 2026-04-26 19:02 | 55.26959 | -53.79142 | 32967 ft | 514 kts | 257° |
| 2026-04-26 19:03 | 55.24055 | -53.92794 | 32985 ft | 515 kts | 256° |
| 2026-04-26 19:03 | 55.21536 | -54.04558 | 32991 ft | 516 kts | 256° |
| 2026-04-26 19:04 | 55.19006 | -54.16309 | 32998 ft | 516 kts | 256° |
| 2026-04-26 19:04 | 55.16461 | -54.28054 | 32982 ft | 516 kts | 256° |
| 2026-04-26 19:05 | 55.12640 | -54.45568 | 33015 ft | 516 kts | 256° |
| 2026-04-26 19:06 | 55.10062 | -54.57313 | 33019 ft | 519 kts | 256° |
| 2026-04-26 19:06 | 55.07463 | -54.69062 | 33020 ft | 519 kts | 256° |
| 2026-04-26 19:07 | 55.04854 | -54.80802 | 33030 ft | 519 kts | 255° |
| 2026-04-26 19:07 | 55.02234 | -54.92517 | 33023 ft | 519 kts | 255° |
| 2026-04-26 19:08 | 54.99623 | -55.04153 | 33030 ft | 520 kts | 255° |
| 2026-04-26 19:08 | 54.96978 | -55.15874 | 33036 ft | 521 kts | 255° |
| 2026-04-26 19:09 | 54.94318 | -55.27581 | 33044 ft | 519 kts | 255° |
| 2026-04-26 19:09 | 54.91652 | -55.39221 | 33055 ft | 517 kts | 254° |
| 2026-04-26 19:10 | 54.89005 | -55.50745 | 33063 ft | 517 kts | 254° |
| 2026-04-26 19:10 | 54.86330 | -55.62341 | 33062 ft | 518 kts | 254° |
| 2026-04-26 19:11 | 54.83630 | -55.73958 | 33076 ft | 519 kts | 254° |
| 2026-04-26 19:11 | 54.80919 | -55.85564 | 33078 ft | 519 kts | 254° |
| 2026-04-26 19:12 | 54.78218 | -55.97077 | 33084 ft | 519 kts | 253° |
| 2026-04-26 19:12 | 54.75485 | -56.08644 | 33099 ft | 519 kts | 253° |
| 2026-04-26 19:13 | 54.72742 | -56.20206 | 33101 ft | 520 kts | 253° |
| 2026-04-26 19:13 | 54.69989 | -56.31757 | 33109 ft | 518 kts | 253° |
| 2026-04-26 19:14 | 54.67238 | -56.43226 | 33127 ft | 516 kts | 253° |
| 2026-04-26 19:14 | 54.64499 | -56.54589 | 33126 ft | 516 kts | 253° |
| 2026-04-26 19:15 | 54.61726 | -56.66019 | 33136 ft | 516 kts | 252° |
| 2026-04-26 19:15 | 54.58940 | -56.77450 | 33142 ft | 518 kts | 252° |
| 2026-04-26 19:16 | 54.55711 | -56.88619 | 33152 ft | 527 kts | 240° |
| 2026-04-26 19:16 | 54.50652 | -56.97748 | 33160 ft | 538 kts | 218° |
| 2026-04-26 19:16 | 54.47426 | -57.01048 | 33159 ft | 541 kts | 207° |
| 2026-04-26 19:17 | 54.43887 | -57.03255 | 33159 ft | 543 kts | 195° |
| 2026-04-26 19:17 | 54.36500 | -57.05957 | 33157 ft | 544 kts | 190° |
| 2026-04-26 19:18 | 54.29049 | -57.08238 | 33152 ft | 544 kts | 190° |
| 2026-04-26 19:18 | 54.21649 | -57.10539 | 33153 ft | 544 kts | 190° |
| 2026-04-26 19:19 | 54.14216 | -57.12929 | 33152 ft | 544 kts | 191° |
| 2026-04-26 19:19 | 54.06783 | -57.15339 | 33160 ft | 544 kts | 191° |
| 2026-04-26 19:20 | 53.99342 | -57.17754 | 33167 ft | 545 kts | 190° |
| 2026-04-26 19:20 | 53.91881 | -57.20157 | 33156 ft | 546 kts | 190° |
| 2026-04-26 19:21 | 53.84470 | -57.22536 | 33160 ft | 545 kts | 190° |
| 2026-04-26 19:21 | 53.77029 | -57.24912 | 33170 ft | 543 kts | 190° |
| 2026-04-26 19:22 | 53.69601 | -57.27277 | 33171 ft | 543 kts | 190° |
| 2026-04-26 19:22 | 53.62170 | -57.29638 | 33163 ft | 543 kts | 190° |
| 2026-04-26 19:23 | 53.54743 | -57.31984 | 33167 ft | 543 kts | 189° |
| 2026-04-26 19:23 | 53.47373 | -57.34302 | 33165 ft | 542 kts | 189° |
| 2026-04-26 19:24 | 53.39952 | -57.36633 | 33163 ft | 543 kts | 189° |
| 2026-04-26 19:24 | 53.28768 | -57.40127 | 33157 ft | 546 kts | 189° |
| 2026-04-26 19:25 | 53.22559 | -57.42062 | 33159 ft | 546 kts | 189° |
| 2026-04-26 19:25 | 53.13878 | -57.44752 | 33162 ft | 546 kts | 189° |
| 2026-04-26 19:26 | 53.06404 | -57.47061 | 33161 ft | 546 kts | 189° |
| 2026-04-26 19:26 | 52.98920 | -57.49366 | 33159 ft | 547 kts | 188° |
| 2026-04-26 19:27 | 52.91426 | -57.51665 | 33151 ft | 548 kts | 188° |
| 2026-04-26 19:27 | 52.83982 | -57.53942 | 33151 ft | 548 kts | 189° |
| 2026-04-26 19:28 | 52.76497 | -57.56230 | 33153 ft | 547 kts | 188° |
| 2026-04-26 19:28 | 52.69023 | -57.58501 | 33140 ft | 546 kts | 188° |
| 2026-04-26 19:29 | 52.61550 | -57.60758 | 33142 ft | 546 kts | 188° |
| 2026-04-26 19:29 | 52.54081 | -57.63012 | 33138 ft | 546 kts | 188° |
| 2026-04-26 19:30 | 52.46669 | -57.65234 | 33127 ft | 545 kts | 188° |
| 2026-04-26 19:30 | 52.40476 | -57.67090 | 33130 ft | 544 kts | 188° |
| 2026-04-26 19:31 | 52.31764 | -57.69692 | 33127 ft | 544 kts | 188° |
| 2026-04-26 19:31 | 52.24309 | -57.71911 | 33130 ft | 545 kts | 187° |
| 2026-04-26 19:32 | 52.16835 | -57.74122 | 33110 ft | 547 kts | 187° |
| 2026-04-26 19:32 | 52.09386 | -57.76322 | 33111 ft | 548 kts | 187° |
| 2026-04-26 19:33 | 52.01889 | -57.78531 | 33098 ft | 548 kts | 187° |
| 2026-04-26 19:33 | 51.94388 | -57.80734 | 33092 ft | 548 kts | 187° |
| 2026-04-26 19:34 | 51.86875 | -57.82926 | 33096 ft | 548 kts | 187° |
| 2026-04-26 19:34 | 51.79417 | -57.85097 | 33083 ft | 548 kts | 187° |
| 2026-04-26 19:35 | 51.71911 | -57.87278 | 33083 ft | 548 kts | 187° |
| 2026-04-26 19:35 | 51.64509 | -57.89421 | 33079 ft | 548 kts | 186° |
| 2026-04-26 19:36 | 51.58250 | -57.91228 | 33087 ft | 551 kts | 186° |
| 2026-04-26 19:36 | 51.49474 | -57.93750 | 33079 ft | 551 kts | 186° |
| 2026-04-26 19:37 | 51.41917 | -57.95914 | 33086 ft | 551 kts | 186° |
| 2026-04-26 19:37 | 51.34370 | -57.98072 | 33094 ft | 551 kts | 186° |
| 2026-04-26 19:38 | 51.26815 | -58.00221 | 33072 ft | 551 kts | 186° |
| 2026-04-26 19:38 | 51.19308 | -58.02355 | 33089 ft | 545 kts | 186° |
| 2026-04-26 19:39 | 51.11903 | -58.04451 | 33119 ft | 544 kts | 186° |
| 2026-04-26 19:39 | 51.04454 | -58.06548 | 33091 ft | 544 kts | 186° |
| 2026-04-26 19:40 | 50.96992 | -58.08642 | 33084 ft | 544 kts | 186° |
| 2026-04-26 19:40 | 50.89547 | -58.10725 | 33091 ft | 543 kts | 186° |
| 2026-04-26 19:41 | 50.82155 | -58.12789 | 33096 ft | 543 kts | 186° |
| 2026-04-26 19:41 | 50.75923 | -58.14528 | 33095 ft | 543 kts | 186° |
| 2026-04-26 19:42 | 50.67276 | -58.16925 | 33098 ft | 543 kts | 186° |
| 2026-04-26 19:42 | 50.59828 | -58.18983 | 33093 ft | 543 kts | 186° |
| 2026-04-26 19:43 | 50.52386 | -58.21030 | 33099 ft | 545 kts | 185° |
| 2026-04-26 19:43 | 50.44952 | -58.23075 | 33101 ft | 546 kts | 185° |
| 2026-04-26 19:44 | 50.37468 | -58.25123 | 33102 ft | 546 kts | 185° |
| 2026-04-26 19:44 | 50.29984 | -58.27166 | 33105 ft | 546 kts | 185° |
| 2026-04-26 19:45 | 50.22504 | -58.29205 | 33101 ft | 545 kts | 185° |
| 2026-04-26 19:45 | 50.15096 | -58.31211 | 33106 ft | 544 kts | 185° |
| 2026-04-26 19:46 | 50.07639 | -58.33224 | 33112 ft | 544 kts | 185° |
| 2026-04-26 19:46 | 50.00183 | -58.35234 | 33126 ft | 544 kts | 185° |
| 2026-04-26 19:47 | 49.93989 | -58.36899 | 33105 ft | 544 kts | 185° |
| 2026-04-26 19:47 | 49.85315 | -58.39221 | 33102 ft | 544 kts | 185° |
| 2026-04-26 19:48 | 49.77855 | -58.41210 | 33093 ft | 544 kts | 185° |
| 2026-04-26 19:48 | 49.70391 | -58.43194 | 33097 ft | 544 kts | 185° |
| 2026-04-26 19:49 | 49.62926 | -58.45173 | 33099 ft | 544 kts | 185° |
| 2026-04-26 19:49 | 49.55462 | -58.47146 | 33097 ft | 544 kts | 185° |
| 2026-04-26 19:50 | 49.48052 | -58.49104 | 33135 ft | 543 kts | 184° |
| 2026-04-26 19:50 | 49.40601 | -58.51062 | 33109 ft | 544 kts | 184° |
| 2026-04-26 19:51 | 49.33140 | -58.53016 | 33103 ft | 544 kts | 184° |
| 2026-04-26 19:51 | 49.25680 | -58.54966 | 33107 ft | 543 kts | 184° |
| 2026-04-26 19:52 | 49.18246 | -58.56902 | 33108 ft | 541 kts | 184° |
| 2026-04-26 19:52 | 49.10870 | -58.58817 | 33109 ft | 541 kts | 184° |
| 2026-04-26 19:53 | 49.03445 | -58.60737 | 33112 ft | 541 kts | 184° |
| 2026-04-26 19:53 | 48.96013 | -58.62654 | 33110 ft | 541 kts | 184° |
| 2026-04-26 19:54 | 48.88569 | -58.64569 | 33104 ft | 544 kts | 184° |
| 2026-04-26 19:54 | 48.81145 | -58.66473 | 33107 ft | 545 kts | 183° |
| 2026-04-26 19:55 | 48.73660 | -58.68387 | 33107 ft | 546 kts | 183° |
| 2026-04-26 19:55 | 48.66169 | -58.70298 | 33096 ft | 546 kts | 183° |
| 2026-04-26 19:56 | 48.58680 | -58.72201 | 33098 ft | 545 kts | 183° |
| 2026-04-26 19:56 | 48.51269 | -58.74082 | 33100 ft | 543 kts | 183° |
| 2026-04-26 19:57 | 48.43819 | -58.75964 | 33108 ft | 542 kts | 183° |
| 2026-04-26 19:57 | 48.36372 | -58.77838 | 33103 ft | 544 kts | 183° |
| 2026-04-26 19:58 | 48.28895 | -58.79712 | 33098 ft | 545 kts | 183° |
| 2026-04-26 19:58 | 48.21408 | -58.81588 | 33108 ft | 545 kts | 183° |
| 2026-04-26 19:59 | 48.14066 | -58.83418 | 33116 ft | 544 kts | 183° |
| 2026-04-26 19:59 | 48.06578 | -58.85273 | 33106 ft | 547 kts | 183° |
| 2026-04-26 20:00 | 47.99066 | -58.87143 | 33110 ft | 547 kts | 183° |
| 2026-04-26 20:00 | 47.91556 | -58.89009 | 33109 ft | 547 kts | 183° |
| 2026-04-26 20:01 | 47.84102 | -58.90850 | 33090 ft | 545 kts | 184° |
| 2026-04-26 20:01 | 47.76632 | -58.92691 | 33088 ft | 544 kts | 184° |
| 2026-04-26 20:02 | 47.69170 | -58.94521 | 33092 ft | 544 kts | 184° |
| 2026-04-26 20:02 | 47.62976 | -58.96036 | 33082 ft | 541 kts | 184° |
| 2026-04-26 20:03 | 47.54314 | -58.98151 | 33083 ft | 539 kts | 184° |
| 2026-04-26 20:03 | 47.46959 | -58.99938 | 33075 ft | 539 kts | 184° |
| 2026-04-26 20:04 | 47.39560 | -59.01732 | 33065 ft | 538 kts | 185° |
| 2026-04-26 20:04 | 47.32186 | -59.03516 | 33071 ft | 537 kts | 185° |
| 2026-04-26 20:05 | 47.24818 | -59.05292 | 33082 ft | 537 kts | 185° |
| 2026-04-26 20:05 | 47.17500 | -59.07052 | 33075 ft | 535 kts | 185° |
| 2026-04-26 20:06 | 47.10165 | -59.08812 | 33078 ft | 534 kts | 185° |
| 2026-04-26 20:06 | 47.02837 | -59.10565 | 33079 ft | 534 kts | 185° |
| 2026-04-26 20:07 | 46.95510 | -59.12310 | 33088 ft | 533 kts | 186° |
| 2026-04-26 20:07 | 46.88198 | -59.14048 | 33080 ft | 532 kts | 186° |
| 2026-04-26 20:08 | 46.80954 | -59.15766 | 33080 ft | 530 kts | 186° |
| 2026-04-26 20:08 | 46.73671 | -59.17490 | 33083 ft | 530 kts | 186° |
| 2026-04-26 20:09 | 46.66389 | -59.19208 | 33078 ft | 530 kts | 186° |
| 2026-04-26 20:09 | 46.59100 | -59.20923 | 33083 ft | 530 kts | 186° |
| 2026-04-26 20:10 | 46.51864 | -59.22622 | 33081 ft | 530 kts | 187° |
| 2026-04-26 20:10 | 46.44576 | -59.24326 | 33080 ft | 531 kts | 186° |
| 2026-04-26 20:11 | 46.37295 | -59.26025 | 33094 ft | 529 kts | 187° |
| 2026-04-26 20:12 | 46.26488 | -59.28543 | 33088 ft | 525 kts | 188° |
| 2026-04-26 20:12 | 46.19287 | -59.30209 | 33091 ft | 524 kts | 188° |
| 2026-04-26 20:13 | 46.12078 | -59.31875 | 33080 ft | 524 kts | 188° |
| 2026-04-26 20:13 | 46.04877 | -59.33540 | 33094 ft | 524 kts | 188° |
| 2026-04-26 20:14 | 45.97685 | -59.35191 | 33101 ft | 524 kts | 188° |
| 2026-04-26 20:14 | 45.90536 | -59.36827 | 33084 ft | 523 kts | 189° |
| 2026-04-26 20:15 | 45.83353 | -59.38472 | 33096 ft | 523 kts | 189° |
| 2026-04-26 20:15 | 45.76169 | -59.40114 | 33101 ft | 523 kts | 189° |
| 2026-04-26 20:16 | 45.68990 | -59.41747 | 33099 ft | 522 kts | 190° |
| 2026-04-26 20:16 | 45.61821 | -59.43376 | 33109 ft | 521 kts | 190° |
| 2026-04-26 20:17 | 45.54714 | -59.44984 | 33094 ft | 520 kts | 190° |
| 2026-04-26 20:17 | 45.47562 | -59.46598 | 33091 ft | 520 kts | 191° |
| 2026-04-26 20:18 | 45.40426 | -59.48203 | 33110 ft | 518 kts | 191° |
| 2026-04-26 20:18 | 45.33312 | -59.49802 | 33109 ft | 517 kts | 191° |
| 2026-04-26 20:19 | 45.26245 | -59.51385 | 33098 ft | 517 kts | 192° |
| 2026-04-26 20:19 | 45.19143 | -59.52974 | 33112 ft | 516 kts | 192° |
| 2026-04-26 20:20 | 45.12045 | -59.54558 | 33102 ft | 516 kts | 192° |
| 2026-04-26 20:20 | 45.04948 | -59.56136 | 33100 ft | 516 kts | 192° |
| 2026-04-26 20:21 | 44.97898 | -59.57698 | 33141 ft | 516 kts | 192° |
| 2026-04-26 20:21 | 44.90807 | -59.59267 | 33114 ft | 516 kts | 192° |
| 2026-04-26 20:22 | 44.83709 | -59.60835 | 33108 ft | 516 kts | 193° |
| 2026-04-26 20:22 | 44.76610 | -59.62400 | 33113 ft | 516 kts | 193° |
| 2026-04-26 20:23 | 44.69512 | -59.63962 | 33118 ft | 516 kts | 193° |
| 2026-04-26 20:23 | 44.62458 | -59.65508 | 33117 ft | 516 kts | 193° |
| 2026-04-26 20:24 | 44.55356 | -59.67061 | 33114 ft | 516 kts | 193° |
| 2026-04-26 20:24 | 44.48254 | -59.68609 | 33128 ft | 517 kts | 193° |
| 2026-04-26 20:25 | 44.41146 | -59.70154 | 33119 ft | 518 kts | 194° |
| 2026-04-26 20:25 | 44.34072 | -59.71689 | 33121 ft | 518 kts | 194° |
| 2026-04-26 20:26 | 44.26956 | -59.73228 | 33125 ft | 518 kts | 194° |
| 2026-04-26 20:26 | 44.19837 | -59.74761 | 33119 ft | 517 kts | 194° |
| 2026-04-26 20:27 | 44.12730 | -59.76287 | 33125 ft | 517 kts | 194° |
| 2026-04-26 20:27 | 44.05666 | -59.77806 | 33143 ft | 517 kts | 194° |
| 2026-04-26 20:28 | 43.98558 | -59.79332 | 33124 ft | 517 kts | 194° |
| 2026-04-26 20:28 | 43.91550 | -59.80827 | 33115 ft | 515 kts | 194° |
| 2026-04-26 20:29 | 43.84472 | -59.82332 | 33077 ft | 515 kts | 194° |
| 2026-04-26 20:29 | 43.77419 | -59.83834 | 33108 ft | 511 kts | 195° |
| 2026-04-26 20:30 | 43.70455 | -59.85312 | 33113 ft | 509 kts | 195° |
| 2026-04-26 20:30 | 43.63454 | -59.86798 | 33090 ft | 509 kts | 195° |
| 2026-04-26 20:31 | 43.56455 | -59.88278 | 33118 ft | 508 kts | 196° |
| 2026-04-26 20:31 | 43.49468 | -59.89754 | 33115 ft | 508 kts | 196° |
| 2026-04-26 20:32 | 43.42527 | -59.91214 | 33106 ft | 508 kts | 197° |
| 2026-04-26 20:32 | 43.35536 | -59.92679 | 33119 ft | 508 kts | 197° |
| 2026-04-26 20:33 | 43.28554 | -59.94141 | 33120 ft | 508 kts | 197° |
| 2026-04-26 20:33 | 43.21571 | -59.95601 | 33125 ft | 508 kts | 197° |
| 2026-04-26 20:34 | 43.14632 | -59.97046 | 33128 ft | 508 kts | 198° |
| 2026-04-26 20:34 | 43.07671 | -59.98606 | 33131 ft | 502 kts | 202° |
| 2026-04-26 20:34 | 43.04371 | -59.99983 | 33115 ft | 490 kts | 211° |
| 2026-04-26 20:35 | 43.01343 | -60.01968 | 33134 ft | 476 kts | 220° |
| 2026-04-26 20:35 | 42.98665 | -60.04512 | 33135 ft | 463 kts | 229° |
| 2026-04-26 20:35 | 42.96381 | -60.07533 | 33135 ft | 452 kts | 238° |
| 2026-04-26 20:36 | 42.92693 | -60.14299 | 33134 ft | 446 kts | 243° |
| 2026-04-26 20:36 | 42.89213 | -60.21289 | 33121 ft | 445 kts | 244° |
| 2026-04-26 20:37 | 42.85738 | -60.28251 | 33129 ft | 444 kts | 243° |
| 2026-04-26 20:37 | 42.82230 | -60.35168 | 33126 ft | 444 kts | 243° |
| 2026-04-26 20:38 | 42.78726 | -60.42025 | 33130 ft | 444 kts | 243° |
| 2026-04-26 20:38 | 42.75189 | -60.48924 | 33137 ft | 445 kts | 243° |
| 2026-04-26 20:39 | 42.71646 | -60.55824 | 33137 ft | 445 kts | 243° |
| 2026-04-26 20:39 | 42.68103 | -60.62713 | 33142 ft | 445 kts | 243° |
| 2026-04-26 20:40 | 42.64553 | -60.69598 | 33114 ft | 445 kts | 243° |
| 2026-04-26 20:40 | 42.61031 | -60.76409 | 33141 ft | 443 kts | 243° |
| 2026-04-26 20:41 | 42.57492 | -60.83242 | 33143 ft | 442 kts | 243° |
| 2026-04-26 20:41 | 42.53951 | -60.90064 | 33143 ft | 442 kts | 243° |
| 2026-04-26 20:42 | 42.50431 | -60.96826 | 33137 ft | 441 kts | 243° |
| 2026-04-26 20:42 | 42.46901 | -61.03589 | 33144 ft | 438 kts | 243° |
| 2026-04-26 20:43 | 42.43384 | -61.10314 | 33143 ft | 438 kts | 243° |
| 2026-04-26 20:43 | 42.39862 | -61.17042 | 33143 ft | 438 kts | 243° |
| 2026-04-26 20:44 | 42.36276 | -61.23688 | 33146 ft | 437 kts | 239° |
| 2026-04-26 20:44 | 42.32349 | -61.29886 | 33149 ft | 436 kts | 237° |
| 2026-04-26 20:45 | 42.28389 | -61.35949 | 33147 ft | 435 kts | 238° |
| 2026-04-26 20:45 | 42.24439 | -61.42122 | 33137 ft | 434 kts | 238° |
| 2026-04-26 20:46 | 42.20530 | -61.48305 | 33158 ft | 431 kts | 238° |
| 2026-04-26 20:46 | 42.16674 | -61.54418 | 33159 ft | 431 kts | 238° |
| 2026-04-26 20:47 | 42.12784 | -61.60573 | 33155 ft | 431 kts | 238° |
| 2026-04-26 20:47 | 42.08888 | -61.66714 | 33158 ft | 431 kts | 238° |
| 2026-04-26 20:48 | 42.04992 | -61.72838 | 33164 ft | 430 kts | 238° |
| 2026-04-26 20:48 | 42.01124 | -61.78912 | 33164 ft | 430 kts | 238° |
| 2026-04-26 20:49 | 41.97223 | -61.85019 | 33145 ft | 430 kts | 237° |
| 2026-04-26 20:49 | 41.93321 | -61.91120 | 33168 ft | 431 kts | 237° |
| 2026-04-26 20:50 | 41.89410 | -61.97221 | 33168 ft | 431 kts | 237° |
| 2026-04-26 20:50 | 41.85500 | -62.03308 | 33167 ft | 431 kts | 237° |
| 2026-04-26 20:51 | 41.81613 | -62.09351 | 33175 ft | 430 kts | 237° |
| 2026-04-26 20:51 | 41.77700 | -62.15418 | 33176 ft | 430 kts | 237° |
| 2026-04-26 20:52 | 41.73782 | -62.21480 | 33176 ft | 430 kts | 237° |
| 2026-04-26 20:52 | 41.69858 | -62.27536 | 33163 ft | 430 kts | 236° |
| 2026-04-26 20:53 | 41.65960 | -62.33543 | 33172 ft | 431 kts | 236° |
| 2026-04-26 20:53 | 41.62025 | -62.39594 | 33178 ft | 431 kts | 236° |
| 2026-04-26 20:54 | 41.58082 | -62.45638 | 33177 ft | 431 kts | 236° |
| 2026-04-26 20:54 | 41.54138 | -62.51680 | 33171 ft | 433 kts | 236° |
| 2026-04-26 20:55 | 41.50196 | -62.57706 | 33178 ft | 433 kts | 236° |
| 2026-04-26 20:55 | 41.46232 | -62.63749 | 33180 ft | 433 kts | 236° |
| 2026-04-26 20:56 | 41.42268 | -62.69784 | 33180 ft | 433 kts | 236° |
| 2026-04-26 20:56 | 41.38299 | -62.75808 | 33178 ft | 433 kts | 236° |
| 2026-04-26 20:57 | 41.34355 | -62.81784 | 33177 ft | 433 kts | 236° |
| 2026-04-26 20:57 | 41.30387 | -62.87786 | 33177 ft | 431 kts | 236° |
| 2026-04-26 20:58 | 41.26421 | -62.93770 | 33178 ft | 432 kts | 235° |
| 2026-04-26 20:58 | 41.22444 | -62.99765 | 33177 ft | 432 kts | 236° |
| 2026-04-26 20:59 | 41.18491 | -63.05711 | 33180 ft | 433 kts | 235° |
| 2026-04-26 20:59 | 41.14503 | -63.11697 | 33179 ft | 433 kts | 235° |
| 2026-04-26 21:00 | 41.10510 | -63.17682 | 33183 ft | 433 kts | 235° |
| 2026-04-26 21:00 | 41.06518 | -63.23649 | 33184 ft | 433 kts | 235° |
| 2026-04-26 21:01 | 41.02548 | -63.29571 | 33187 ft | 433 kts | 235° |
| 2026-04-26 21:01 | 40.98550 | -63.35525 | 33184 ft | 433 kts | 234° |
| 2026-04-26 21:02 | 40.94539 | -63.41486 | 33185 ft | 434 kts | 234° |
| 2026-04-26 21:02 | 40.90527 | -63.47435 | 33184 ft | 433 kts | 234° |
| 2026-04-26 21:03 | 40.86522 | -63.53361 | 33171 ft | 432 kts | 234° |
| 2026-04-26 21:03 | 40.82541 | -63.59246 | 33184 ft | 433 kts | 234° |
| 2026-04-26 21:04 | 40.78515 | -63.65183 | 33184 ft | 434 kts | 234° |
| 2026-04-26 21:04 | 40.74490 | -63.71105 | 33184 ft | 433 kts | 234° |
| 2026-04-26 21:05 | 40.70490 | -63.76982 | 33178 ft | 434 kts | 233° |
| 2026-04-26 21:05 | 40.66450 | -63.82905 | 33181 ft | 435 kts | 233° |
| 2026-04-26 21:06 | 40.62400 | -63.88830 | 33182 ft | 435 kts | 233° |
| 2026-04-26 21:06 | 40.58347 | -63.94748 | 33187 ft | 435 kts | 233° |
| 2026-04-26 21:07 | 40.54310 | -64.00633 | 33186 ft | 438 kts | 233° |
| 2026-04-26 21:07 | 40.50228 | -64.06571 | 33184 ft | 438 kts | 233° |
| 2026-04-26 21:08 | 40.46145 | -64.12495 | 33185 ft | 436 kts | 233° |
| 2026-04-26 21:08 | 40.42072 | -64.18397 | 33173 ft | 436 kts | 233° |
| 2026-04-26 21:09 | 40.37980 | -64.24316 | 33177 ft | 439 kts | 233° |
| 2026-04-26 21:09 | 40.33897 | -64.30210 | 33179 ft | 439 kts | 233° |
| 2026-04-26 21:10 | 40.29782 | -64.36134 | 33179 ft | 439 kts | 233° |
| 2026-04-26 21:10 | 40.25670 | -64.42042 | 33184 ft | 439 kts | 232° |
| 2026-04-26 21:11 | 40.21549 | -64.47954 | 33184 ft | 440 kts | 232° |
| 2026-04-26 21:11 | 40.17452 | -64.53821 | 33184 ft | 440 kts | 232° |
| 2026-04-26 21:12 | 40.13324 | -64.59720 | 33183 ft | 440 kts | 232° |
| 2026-04-26 21:12 | 40.09186 | -64.65623 | 33181 ft | 441 kts | 232° |
| 2026-04-26 21:13 | 40.05038 | -64.71528 | 33181 ft | 441 kts | 232° |
| 2026-04-26 21:13 | 40.00912 | -64.77389 | 33181 ft | 441 kts | 232° |
| 2026-04-26 21:14 | 39.96757 | -64.83279 | 33184 ft | 441 kts | 232° |
| 2026-04-26 21:14 | 39.92599 | -64.89164 | 33181 ft | 441 kts | 232° |
| 2026-04-26 21:15 | 39.88435 | -64.95045 | 33176 ft | 441 kts | 232° |
| 2026-04-26 21:15 | 39.84272 | -65.00913 | 33177 ft | 441 kts | 232° |
| 2026-04-26 21:16 | 39.80145 | -65.06723 | 33173 ft | 441 kts | 231° |
| 2026-04-26 21:16 | 39.75970 | -65.12588 | 33173 ft | 442 kts | 232° |
| 2026-04-26 21:17 | 39.71794 | -65.18443 | 33172 ft | 442 kts | 231° |
| 2026-04-26 21:17 | 39.67614 | -65.24293 | 33170 ft | 442 kts | 231° |
| 2026-04-26 21:18 | 39.63453 | -65.30104 | 33160 ft | 443 kts | 231° |
| 2026-04-26 21:18 | 39.59250 | -65.35966 | 33167 ft | 444 kts | 231° |
| 2026-04-26 21:19 | 39.55042 | -65.41819 | 33167 ft | 444 kts | 231° |
| 2026-04-26 21:19 | 39.50831 | -65.47664 | 33154 ft | 444 kts | 231° |
| 2026-04-26 21:20 | 39.46636 | -65.53478 | 33165 ft | 445 kts | 231° |
| 2026-04-26 21:20 | 39.42402 | -65.59336 | 33165 ft | 446 kts | 231° |
| 2026-04-26 21:21 | 39.38195 | -65.65143 | 33159 ft | 446 kts | 231° |
| 2026-04-26 21:21 | 39.33991 | -65.70887 | 33156 ft | 443 kts | 231° |
| 2026-04-26 21:22 | 39.29763 | -65.76657 | 33153 ft | 446 kts | 231° |
| 2026-04-26 21:22 | 39.25522 | -65.82500 | 33153 ft | 446 kts | 232° |
| 2026-04-26 21:23 | 39.19168 | -65.91262 | 33135 ft | 446 kts | 232° |
| 2026-04-26 21:23 | 39.14913 | -65.97092 | 33145 ft | 446 kts | 231° |
| 2026-04-26 21:24 | 39.10683 | -66.02862 | 33142 ft | 445 kts | 231° |
| 2026-04-26 21:24 | 39.06429 | -66.08650 | 33140 ft | 445 kts | 231° |
| 2026-04-26 21:25 | 39.02167 | -66.14441 | 33132 ft | 446 kts | 231° |
| 2026-04-26 21:25 | 38.97879 | -66.20260 | 33129 ft | 450 kts | 231° |
| 2026-04-26 21:26 | 38.93574 | -66.26089 | 33130 ft | 450 kts | 231° |
| 2026-04-26 21:26 | 38.89310 | -66.31844 | 33127 ft | 446 kts | 231° |
| 2026-04-26 21:27 | 38.85033 | -66.37610 | 33117 ft | 446 kts | 231° |
| 2026-04-26 21:27 | 38.80742 | -66.43388 | 33116 ft | 447 kts | 231° |
| 2026-04-26 21:28 | 38.77176 | -66.48182 | 33111 ft | 447 kts | 231° |
| 2026-04-26 21:28 | 38.72181 | -66.54882 | 33104 ft | 447 kts | 231° |
| 2026-04-26 21:29 | 38.67877 | -66.60645 | 33101 ft | 448 kts | 230° |
| 2026-04-26 21:29 | 38.63613 | -66.66461 | 33088 ft | 446 kts | 234° |
| 2026-04-26 21:30 | 38.60467 | -66.71663 | 33082 ft | 445 kts | 236° |
| 2026-04-26 21:30 | 38.56799 | -66.78029 | 33074 ft | 445 kts | 237° |
| 2026-04-26 21:31 | 38.52563 | -66.85447 | 33074 ft | 446 kts | 237° |
| 2026-04-26 21:31 | 38.49508 | -66.90775 | 33069 ft | 448 kts | 237° |
| 2026-04-26 21:32 | 38.45221 | -66.98212 | 33062 ft | 447 kts | 236° |
| 2026-04-26 21:32 | 38.41533 | -67.04591 | 33047 ft | 447 kts | 236° |
| 2026-04-26 21:33 | 38.38462 | -67.09895 | 33053 ft | 447 kts | 236° |
| 2026-04-26 21:33 | 38.34761 | -67.16272 | 33034 ft | 447 kts | 236° |
| 2026-04-26 21:34 | 38.31062 | -67.22639 | 33052 ft | 447 kts | 236° |
| 2026-04-26 21:34 | 38.27375 | -67.28973 | 33046 ft | 444 kts | 236° |
| 2026-04-26 21:35 | 38.23697 | -67.35271 | 33027 ft | 443 kts | 236° |
| 2026-04-26 21:35 | 38.20036 | -67.41538 | 33016 ft | 445 kts | 236° |
| 2026-04-26 21:36 | 38.16340 | -67.47853 | 33020 ft | 446 kts | 236° |
| 2026-04-26 21:36 | 38.12633 | -67.54168 | 33012 ft | 446 kts | 236° |
| 2026-04-26 21:37 | 38.08928 | -67.60470 | 33010 ft | 444 kts | 236° |
| 2026-04-26 21:37 | 38.05234 | -67.66741 | 32999 ft | 444 kts | 236° |
| 2026-04-26 21:38 | 38.01546 | -67.72986 | 32995 ft | 446 kts | 236° |
| 2026-04-26 21:38 | 37.97827 | -67.79276 | 32993 ft | 446 kts | 236° |
| 2026-04-26 21:39 | 37.94101 | -67.85564 | 32982 ft | 446 kts | 236° |
| 2026-04-26 21:39 | 37.90378 | -67.91836 | 32990 ft | 446 kts | 236° |
| 2026-04-26 21:40 | 37.86665 | -67.98078 | 32981 ft | 448 kts | 236° |
| 2026-04-26 21:40 | 37.82917 | -68.04374 | 32983 ft | 448 kts | 236° |
| 2026-04-26 21:41 | 37.79156 | -68.10676 | 32982 ft | 449 kts | 236° |
| 2026-04-26 21:41 | 37.75395 | -68.16960 | 32982 ft | 449 kts | 236° |
| 2026-04-26 21:42 | 37.71653 | -68.23202 | 32972 ft | 448 kts | 236° |
| 2026-04-26 21:42 | 37.67884 | -68.29475 | 32980 ft | 449 kts | 236° |
| 2026-04-26 21:43 | 37.64105 | -68.35755 | 32976 ft | 449 kts | 236° |
| 2026-04-26 21:43 | 37.60329 | -68.42021 | 32977 ft | 449 kts | 236° |
| 2026-04-26 21:44 | 37.56576 | -68.48240 | 32976 ft | 449 kts | 236° |
| 2026-04-26 21:44 | 37.52792 | -68.54494 | 32978 ft | 449 kts | 235° |
| 2026-04-26 21:45 | 37.49006 | -68.60738 | 32978 ft | 448 kts | 235° |
| 2026-04-26 21:45 | 37.45220 | -68.66972 | 32978 ft | 448 kts | 235° |
| 2026-04-26 21:46 | 37.41459 | -68.73154 | 32977 ft | 448 kts | 235° |
| 2026-04-26 21:46 | 37.37670 | -68.79370 | 32971 ft | 448 kts | 235° |
| 2026-04-26 21:47 | 37.33869 | -68.85597 | 32979 ft | 449 kts | 235° |
| 2026-04-26 21:47 | 37.30064 | -68.91810 | 32976 ft | 447 kts | 234° |
| 2026-04-26 21:48 | 37.26284 | -68.97980 | 32975 ft | 445 kts | 234° |
| 2026-04-26 21:48 | 37.22527 | -69.04096 | 32974 ft | 445 kts | 234° |
| 2026-04-26 21:49 | 37.18738 | -69.10256 | 32973 ft | 447 kts | 234° |
| 2026-04-26 21:49 | 37.14934 | -69.16428 | 32979 ft | 447 kts | 234° |
| 2026-04-26 21:50 | 37.11124 | -69.22595 | 32978 ft | 447 kts | 234° |
| 2026-04-26 21:50 | 37.07322 | -69.28740 | 32972 ft | 446 kts | 234° |
| 2026-04-26 21:51 | 37.03543 | -69.34838 | 32966 ft | 446 kts | 233° |
| 2026-04-26 21:51 | 36.99720 | -69.40998 | 32983 ft | 449 kts | 233° |
| 2026-04-26 21:52 | 36.95877 | -69.47171 | 32982 ft | 450 kts | 233° |
| 2026-04-26 21:52 | 36.92034 | -69.53328 | 32974 ft | 449 kts | 233° |
| 2026-04-26 21:53 | 36.88221 | -69.59436 | 32971 ft | 448 kts | 233° |
| 2026-04-26 21:53 | 36.84385 | -69.65570 | 32976 ft | 449 kts | 233° |
| 2026-04-26 21:54 | 36.80537 | -69.71714 | 32973 ft | 450 kts | 233° |
| 2026-04-26 21:54 | 36.76682 | -69.77852 | 32975 ft | 450 kts | 233° |
| 2026-04-26 21:55 | 36.72849 | -69.83946 | 32971 ft | 450 kts | 233° |
| 2026-04-26 21:55 | 36.68985 | -69.90076 | 32974 ft | 450 kts | 233° |
| 2026-04-26 21:56 | 36.65120 | -69.96197 | 32975 ft | 450 kts | 233° |
| 2026-04-26 21:56 | 36.61249 | -70.02319 | 32974 ft | 450 kts | 233° |
| 2026-04-26 21:57 | 36.57401 | -70.08391 | 32974 ft | 450 kts | 233° |
| 2026-04-26 21:57 | 36.53521 | -70.14502 | 32974 ft | 450 kts | 233° |
| 2026-04-26 21:58 | 36.49643 | -70.20603 | 32973 ft | 450 kts | 232° |
| 2026-04-26 21:58 | 36.45767 | -70.26685 | 32974 ft | 449 kts | 232° |
| 2026-04-26 21:59 | 36.41892 | -70.32757 | 32977 ft | 448 kts | 232° |
| 2026-04-26 21:59 | 36.38041 | -70.38780 | 32974 ft | 449 kts | 232° |
| 2026-04-26 22:00 | 36.34161 | -70.44839 | 32978 ft | 448 kts | 232° |
| 2026-04-26 22:00 | 36.30277 | -70.50891 | 32977 ft | 448 kts | 232° |
| 2026-04-26 22:01 | 36.26389 | -70.56941 | 32982 ft | 449 kts | 232° |
| 2026-04-26 22:01 | 36.22512 | -70.62961 | 32976 ft | 450 kts | 232° |
| 2026-04-26 22:02 | 36.18602 | -70.69023 | 32982 ft | 450 kts | 232° |
| 2026-04-26 22:02 | 36.14689 | -70.75080 | 32979 ft | 451 kts | 232° |
| 2026-04-26 22:03 | 36.10773 | -70.81129 | 32982 ft | 450 kts | 232° |
| 2026-04-26 22:03 | 36.06858 | -70.87165 | 32985 ft | 450 kts | 232° |
| 2026-04-26 22:04 | 36.02964 | -70.93157 | 32989 ft | 451 kts | 232° |
| 2026-04-26 22:04 | 35.99026 | -70.99207 | 32985 ft | 452 kts | 232° |
| 2026-04-26 22:05 | 35.95080 | -71.05261 | 32988 ft | 452 kts | 232° |
| 2026-04-26 22:05 | 35.91132 | -71.11307 | 32986 ft | 452 kts | 232° |
| 2026-04-26 22:06 | 35.87214 | -71.17295 | 32991 ft | 452 kts | 232° |
| 2026-04-26 22:06 | 35.83268 | -71.23317 | 32994 ft | 452 kts | 232° |
| 2026-04-26 22:07 | 35.79315 | -71.29337 | 32989 ft | 452 kts | 232° |
| 2026-04-26 22:07 | 35.75360 | -71.35351 | 32970 ft | 452 kts | 232° |
| 2026-04-26 22:08 | 35.71405 | -71.41353 | 32993 ft | 451 kts | 232° |
| 2026-04-26 22:08 | 35.67477 | -71.47304 | 32996 ft | 451 kts | 232° |
| 2026-04-26 22:09 | 35.63519 | -71.53293 | 32996 ft | 451 kts | 232° |
| 2026-04-26 22:09 | 35.59556 | -71.59276 | 32997 ft | 452 kts | 232° |
| 2026-04-26 22:10 | 35.55585 | -71.65260 | 32989 ft | 452 kts | 232° |
| 2026-04-26 22:10 | 35.51627 | -71.71215 | 32996 ft | 453 kts | 232° |
| 2026-04-26 22:11 | 35.47639 | -71.77203 | 32996 ft | 453 kts | 232° |
| 2026-04-26 22:11 | 35.43646 | -71.83190 | 32996 ft | 453 kts | 232° |
| 2026-04-26 22:12 | 35.39655 | -71.89163 | 32996 ft | 453 kts | 232° |
| 2026-04-26 22:12 | 35.35680 | -71.95103 | 32991 ft | 454 kts | 232° |
| 2026-04-26 22:13 | 35.31833 | -72.01236 | 32994 ft | 454 kts | 238° |
| 2026-04-26 22:13 | 35.28422 | -72.07738 | 32996 ft | 454 kts | 239° |
| 2026-04-26 22:14 | 35.25088 | -72.14295 | 32996 ft | 454 kts | 239° |
| 2026-04-26 22:14 | 35.21758 | -72.20856 | 32995 ft | 454 kts | 239° |
| 2026-04-26 22:15 | 35.18438 | -72.27362 | 32998 ft | 454 kts | 239° |
| 2026-04-26 22:15 | 35.15067 | -72.33946 | 32995 ft | 459 kts | 239° |
| 2026-04-26 22:16 | 35.11674 | -72.40553 | 32996 ft | 460 kts | 239° |
| 2026-04-26 22:16 | 35.08272 | -72.47166 | 32996 ft | 460 kts | 239° |
| 2026-04-26 22:17 | 35.04853 | -72.53691 | 32992 ft | 460 kts | 236° |
| 2026-04-26 22:17 | 35.00924 | -72.59868 | 32994 ft | 461 kts | 233° |
| 2026-04-26 22:18 | 34.96869 | -72.65963 | 32988 ft | 466 kts | 232° |
| 2026-04-26 22:18 | 34.92759 | -72.72082 | 32996 ft | 466 kts | 232° |
| 2026-04-26 22:19 | 34.88652 | -72.78199 | 32996 ft | 466 kts | 232° |
| 2026-04-26 22:19 | 34.84578 | -72.84270 | 32993 ft | 466 kts | 232° |
| 2026-04-26 22:20 | 34.80476 | -72.90377 | 32993 ft | 466 kts | 232° |
| 2026-04-26 22:20 | 34.76369 | -72.96481 | 33001 ft | 466 kts | 231° |
| 2026-04-26 22:21 | 34.72272 | -73.02557 | 32987 ft | 464 kts | 231° |
| 2026-04-26 22:21 | 34.68203 | -73.08579 | 32987 ft | 464 kts | 231° |
| 2026-04-26 22:22 | 34.64105 | -73.14632 | 32988 ft | 464 kts | 231° |
| 2026-04-26 22:22 | 34.60007 | -73.20683 | 32987 ft | 464 kts | 231° |
| 2026-04-26 22:23 | 34.55904 | -73.26731 | 32984 ft | 465 kts | 232° |
| 2026-04-26 22:23 | 34.51782 | -73.32794 | 32993 ft | 466 kts | 231° |
| 2026-04-26 22:24 | 34.47694 | -73.38792 | 32995 ft | 464 kts | 231° |
| 2026-04-26 22:24 | 34.43589 | -73.44809 | 32987 ft | 463 kts | 231° |
| 2026-04-26 22:25 | 34.39476 | -73.50825 | 32987 ft | 463 kts | 231° |
| 2026-04-26 22:25 | 34.35367 | -73.56826 | 32988 ft | 463 kts | 232° |
| 2026-04-26 22:26 | 34.31279 | -73.62789 | 32987 ft | 463 kts | 232° |
| 2026-04-26 22:26 | 34.27168 | -73.68776 | 32987 ft | 459 kts | 232° |
| 2026-04-26 22:27 | 34.23109 | -73.74676 | 32988 ft | 455 kts | 232° |
| 2026-04-26 22:27 | 34.19060 | -73.80553 | 32988 ft | 455 kts | 232° |
| 2026-04-26 22:28 | 34.15032 | -73.86390 | 32978 ft | 456 kts | 232° |
| 2026-04-26 22:28 | 34.10959 | -73.92281 | 32988 ft | 458 kts | 232° |
| 2026-04-26 22:29 | 34.06877 | -73.98174 | 32984 ft | 458 kts | 232° |
| 2026-04-26 22:29 | 34.02796 | -74.04056 | 32984 ft | 457 kts | 231° |
| 2026-04-26 22:30 | 33.98719 | -74.09922 | 32985 ft | 456 kts | 231° |
| 2026-04-26 22:30 | 33.94674 | -74.15733 | 32971 ft | 456 kts | 232° |
| 2026-04-26 22:31 | 33.90549 | -74.21652 | 32981 ft | 465 kts | 232° |
| 2026-04-26 22:31 | 33.86385 | -74.27613 | 32982 ft | 466 kts | 232° |
| 2026-04-26 22:32 | 33.82212 | -74.33576 | 32982 ft | 466 kts | 232° |
| 2026-04-26 22:32 | 33.78042 | -74.39525 | 32981 ft | 464 kts | 231° |
| 2026-04-26 22:33 | 33.71847 | -74.48346 | 32978 ft | 462 kts | 232° |
| 2026-04-26 22:34 | 33.67706 | -74.54235 | 32979 ft | 462 kts | 232° |
| 2026-04-26 22:34 | 33.63563 | -74.60120 | 32980 ft | 462 kts | 232° |
| 2026-04-26 22:35 | 33.59455 | -74.66044 | 32978 ft | 461 kts | 233° |
| 2026-04-26 22:35 | 33.55397 | -74.71940 | 32974 ft | 461 kts | 233° |
| 2026-04-26 22:36 | 33.51306 | -74.77863 | 32968 ft | 461 kts | 233° |
| 2026-04-26 22:36 | 33.47207 | -74.83773 | 32985 ft | 461 kts | 232° |
| 2026-04-26 22:37 | 33.43104 | -74.89676 | 32962 ft | 461 kts | 232° |
| 2026-04-26 22:37 | 33.39026 | -74.95533 | 32963 ft | 461 kts | 232° |
| 2026-04-26 22:38 | 33.34918 | -75.01425 | 32979 ft | 461 kts | 232° |
| 2026-04-26 22:38 | 33.30810 | -75.07306 | 32974 ft | 461 kts | 233° |
| 2026-04-26 22:39 | 33.26701 | -75.13178 | 32966 ft | 461 kts | 233° |
| 2026-04-26 22:39 | 33.22614 | -75.19013 | 32958 ft | 461 kts | 233° |
| 2026-04-26 22:40 | 33.18494 | -75.24884 | 32964 ft | 461 kts | 233° |
| 2026-04-26 22:40 | 33.14374 | -75.30745 | 32961 ft | 461 kts | 233° |
| 2026-04-26 22:41 | 33.10250 | -75.36603 | 32961 ft | 461 kts | 233° |
| 2026-04-26 22:41 | 33.06147 | -75.42421 | 32962 ft | 462 kts | 233° |
| 2026-04-26 22:42 | 33.01999 | -75.48295 | 32961 ft | 464 kts | 233° |
| 2026-04-26 22:42 | 32.97842 | -75.54170 | 32961 ft | 464 kts | 233° |
| 2026-04-26 22:43 | 32.93681 | -75.60042 | 32960 ft | 464 kts | 233° |
| 2026-04-26 22:43 | 32.89520 | -75.65906 | 32955 ft | 464 kts | 233° |
| 2026-04-26 22:44 | 32.85380 | -75.71729 | 32929 ft | 464 kts | 233° |
| 2026-04-26 22:44 | 32.81199 | -75.77601 | 32956 ft | 466 kts | 233° |
| 2026-04-26 22:45 | 32.76998 | -75.83495 | 32956 ft | 468 kts | 233° |
| 2026-04-26 22:45 | 32.72784 | -75.89394 | 32954 ft | 469 kts | 233° |
| 2026-04-26 22:46 | 32.68593 | -75.95252 | 32950 ft | 468 kts | 233° |
| 2026-04-26 22:46 | 32.64371 | -76.01143 | 32951 ft | 469 kts | 233° |
| 2026-04-26 22:47 | 32.60146 | -76.07030 | 32951 ft | 469 kts | 233° |
| 2026-04-26 22:47 | 32.55920 | -76.12909 | 32948 ft | 468 kts | 233° |
| 2026-04-26 22:48 | 32.51690 | -76.18783 | 32948 ft | 468 kts | 233° |
| 2026-04-26 22:48 | 32.47488 | -76.24610 | 32949 ft | 468 kts | 233° |
| 2026-04-26 22:49 | 32.43249 | -76.30476 | 32949 ft | 468 kts | 233° |
| 2026-04-26 22:49 | 32.39011 | -76.36333 | 32939 ft | 469 kts | 233° |
| 2026-04-26 22:50 | 32.34756 | -76.42206 | 32952 ft | 471 kts | 233° |
| 2026-04-26 22:50 | 32.30519 | -76.48046 | 32957 ft | 471 kts | 233° |
| 2026-04-26 22:51 | 32.26255 | -76.53912 | 32951 ft | 469 kts | 233° |
| 2026-04-26 22:51 | 32.22010 | -76.59743 | 32948 ft | 467 kts | 233° |
| 2026-04-26 22:52 | 32.17774 | -76.65553 | 32920 ft | 467 kts | 233° |
| 2026-04-26 22:52 | 32.13515 | -76.71387 | 32949 ft | 472 kts | 233° |
| 2026-04-26 22:53 | 32.09222 | -76.77260 | 32949 ft | 473 kts | 233° |
| 2026-04-26 22:53 | 32.04948 | -76.83092 | 32949 ft | 473 kts | 233° |
| 2026-04-26 22:54 | 32.00649 | -76.88945 | 32954 ft | 472 kts | 233° |
| 2026-04-26 22:54 | 31.96366 | -76.94766 | 32950 ft | 469 kts | 233° |
| 2026-04-26 22:55 | 31.91908 | -77.00391 | 32950 ft | 474 kts | 229° |
| 2026-04-26 22:55 | 31.87123 | -77.05690 | 32951 ft | 477 kts | 228° |
| 2026-04-26 22:56 | 31.82237 | -77.10978 | 32949 ft | 478 kts | 228° |
| 2026-04-26 22:56 | 31.77341 | -77.16262 | 32950 ft | 477 kts | 228° |
| 2026-04-26 22:57 | 31.72453 | -77.21539 | 32952 ft | 477 kts | 228° |
| 2026-04-26 22:57 | 31.67591 | -77.26785 | 32953 ft | 478 kts | 228° |
| 2026-04-26 22:58 | 31.62694 | -77.32065 | 32949 ft | 479 kts | 229° |
| 2026-04-26 22:58 | 31.57786 | -77.37351 | 32950 ft | 479 kts | 228° |
| 2026-04-26 22:59 | 31.52870 | -77.42628 | 32952 ft | 479 kts | 228° |
| 2026-04-26 22:59 | 31.47986 | -77.47863 | 32952 ft | 479 kts | 228° |
| 2026-04-26 23:00 | 31.43076 | -77.53123 | 32951 ft | 477 kts | 230° |
| 2026-04-26 23:00 | 31.38189 | -77.58354 | 32955 ft | 475 kts | 230° |
| 2026-04-26 23:01 | 31.33318 | -77.63561 | 32954 ft | 474 kts | 230° |
| 2026-04-26 23:01 | 31.28457 | -77.68761 | 32952 ft | 473 kts | 230° |
| 2026-04-26 23:02 | 31.24257 | -77.74449 | 32951 ft | 460 kts | 239° |
| 2026-04-26 23:02 | 31.20442 | -77.80406 | 32947 ft | 456 kts | 241° |
| 2026-04-26 23:03 | 31.16705 | -77.86374 | 32951 ft | 454 kts | 241° |
| 2026-04-26 23:03 | 31.12971 | -77.92321 | 32952 ft | 454 kts | 241° |
| 2026-04-26 23:04 | 31.09245 | -77.98213 | 32947 ft | 454 kts | 240° |
| 2026-04-26 23:04 | 31.05487 | -78.04137 | 32952 ft | 454 kts | 240° |
| 2026-04-26 23:05 | 31.01726 | -78.10053 | 32953 ft | 454 kts | 240° |
| 2026-04-26 23:05 | 30.97966 | -78.15966 | 32953 ft | 454 kts | 240° |
| 2026-04-26 23:06 | 30.94214 | -78.21858 | 32952 ft | 458 kts | 240° |
| 2026-04-26 23:06 | 30.90405 | -78.27833 | 32949 ft | 460 kts | 240° |
| 2026-04-26 23:07 | 30.86587 | -78.33802 | 32953 ft | 460 kts | 240° |
| 2026-04-26 23:07 | 30.82763 | -78.39764 | 32952 ft | 460 kts | 240° |
| 2026-04-26 23:08 | 30.78966 | -78.45687 | 32956 ft | 460 kts | 240° |
| 2026-04-26 23:08 | 30.75144 | -78.51644 | 32954 ft | 460 kts | 240° |
| 2026-04-26 23:09 | 30.71314 | -78.57601 | 32955 ft | 461 kts | 240° |
| 2026-04-26 23:09 | 30.67460 | -78.63587 | 32951 ft | 464 kts | 240° |
| 2026-04-26 23:10 | 30.63703 | -78.69600 | 32949 ft | 459 kts | 244° |
| 2026-04-26 23:10 | 30.60497 | -78.75983 | 32955 ft | 457 kts | 246° |
| 2026-04-26 23:11 | 30.57402 | -78.82423 | 32952 ft | 457 kts | 247° |
| 2026-04-26 23:11 | 30.54320 | -78.88872 | 32952 ft | 457 kts | 247° |
| 2026-04-26 23:12 | 30.51250 | -78.95266 | 32951 ft | 457 kts | 246° |
| 2026-04-26 23:12 | 30.48146 | -79.01698 | 32944 ft | 457 kts | 246° |
| 2026-04-26 23:13 | 30.45032 | -79.08136 | 32949 ft | 458 kts | 246° |
| 2026-04-26 23:13 | 30.41922 | -79.14562 | 32952 ft | 457 kts | 246° |
| 2026-04-26 23:14 | 30.38832 | -79.20940 | 32952 ft | 457 kts | 246° |
| 2026-04-26 23:14 | 30.35718 | -79.27353 | 32952 ft | 457 kts | 246° |
| 2026-04-26 23:15 | 30.32601 | -79.33762 | 32955 ft | 457 kts | 246° |
| 2026-04-26 23:15 | 30.29480 | -79.40164 | 32955 ft | 457 kts | 246° |
| 2026-04-26 23:16 | 30.26352 | -79.46565 | 32952 ft | 457 kts | 246° |
| 2026-04-26 23:16 | 30.23248 | -79.52914 | 32952 ft | 457 kts | 246° |
| 2026-04-26 23:17 | 30.20118 | -79.59313 | 32951 ft | 457 kts | 246° |
| 2026-04-26 23:17 | 30.16987 | -79.65699 | 32954 ft | 457 kts | 246° |
| 2026-04-26 23:18 | 30.13847 | -79.72089 | 32954 ft | 457 kts | 246° |
| 2026-04-26 23:18 | 30.10707 | -79.78469 | 32952 ft | 457 kts | 245° |
| 2026-04-26 23:19 | 30.07581 | -79.84808 | 32949 ft | 458 kts | 245° |
| 2026-04-26 23:19 | 30.04430 | -79.91185 | 32949 ft | 458 kts | 245° |
| 2026-04-26 23:20 | 30.01272 | -79.97570 | 32939 ft | 458 kts | 245° |
| 2026-04-26 23:20 | 29.97719 | -80.03742 | 32947 ft | 464 kts | 239° |
| 2026-04-26 23:21 | 29.93967 | -80.09814 | 32948 ft | 465 kts | 239° |
| 2026-04-26 23:21 | 29.90236 | -80.15836 | 32950 ft | 465 kts | 239° |
| 2026-04-26 23:22 | 29.86470 | -80.21906 | 32947 ft | 465 kts | 239° |
| 2026-04-26 23:22 | 29.82746 | -80.27897 | 32947 ft | 466 kts | 239° |
| 2026-04-26 23:22 | 29.80876 | -80.30878 | 32960 ft | 451 kts | 238° |
| 2026-04-26 23:23 | 29.79089 | -80.33714 | 32993 ft | 422 kts | 239° |
| 2026-04-26 23:23 | 29.77434 | -80.36358 | 32968 ft | 395 kts | 240° |
| 2026-04-26 23:23 | 29.75852 | -80.38902 | 32796 ft | 392 kts | 240° |
| 2026-04-26 23:23 | 29.74261 | -80.41482 | 32606 ft | 409 kts | 240° |
| 2026-04-26 23:24 | 29.72583 | -80.44195 | 32496 ft | 424 kts | 240° |
| 2026-04-26 23:24 | 29.70850 | -80.46981 | 32317 ft | 428 kts | 239° |
| 2026-04-26 23:24 | 29.69113 | -80.49761 | 31544 ft | 430 kts | 239° |
| 2026-04-26 23:24 | 29.67353 | -80.52579 | 30554 ft | 438 kts | 238° |
| 2026-04-26 23:25 | 29.65564 | -80.55442 | 29491 ft | 445 kts | 237° |
| 2026-04-26 23:25 | 29.63736 | -80.58357 | 28284 ft | 453 kts | 237° |
| 2026-04-26 23:25 | 29.61890 | -80.61297 | 27450 ft | 453 kts | 237° |
| 2026-04-26 23:25 | 29.60053 | -80.64221 | 26766 ft | 450 kts | 237° |
| 2026-04-26 23:26 | 29.58226 | -80.67127 | 26105 ft | 447 kts | 236° |
| 2026-04-26 23:26 | 29.56417 | -80.70006 | 25442 ft | 444 kts | 236° |
| 2026-04-26 23:26 | 29.54614 | -80.72871 | 24767 ft | 441 kts | 236° |
| 2026-04-26 23:26 | 29.52847 | -80.75681 | 24133 ft | 439 kts | 236° |
| 2026-04-26 23:27 | 29.51063 | -80.78514 | 23463 ft | 437 kts | 236° |
| 2026-04-26 23:27 | 29.49291 | -80.81327 | 22719 ft | 434 kts | 236° |
| 2026-04-26 23:27 | 29.47527 | -80.84122 | 22058 ft | 430 kts | 236° |
| 2026-04-26 23:27 | 29.46348 | -80.85991 | 21619 ft | 427 kts | 236° |
| 2026-04-26 23:28 | 29.44053 | -80.89627 | 20751 ft | 423 kts | 236° |
| 2026-04-26 23:28 | 29.42333 | -80.92351 | 20092 ft | 421 kts | 236° |
| 2026-04-26 23:28 | 29.40619 | -80.95060 | 19428 ft | 419 kts | 236° |
| 2026-04-26 23:28 | 29.38912 | -80.97760 | 18755 ft | 418 kts | 237° |
| 2026-04-26 23:29 | 29.37207 | -81.00454 | 18060 ft | 417 kts | 237° |
| 2026-04-26 23:29 | 29.35508 | -81.03139 | 17324 ft | 415 kts | 237° |
| 2026-04-26 23:29 | 29.33793 | -81.05788 | 16627 ft | 412 kts | 234° |
| 2026-04-26 23:29 | 29.31813 | -81.08093 | 15963 ft | 413 kts | 221° |
| 2026-04-26 23:30 | 29.29365 | -81.09800 | 15255 ft | 414 kts | 206° |
| 2026-04-26 23:30 | 29.26605 | -81.10719 | 14556 ft | 414 kts | 190° |
| 2026-04-26 23:30 | 29.23735 | -81.10837 | 13871 ft | 413 kts | 179° |
| 2026-04-26 23:30 | 29.20916 | -81.10613 | 13679 ft | 397 kts | 177° |
| 2026-04-26 23:31 | 29.18226 | -81.10373 | 13562 ft | 378 kts | 177° |
| 2026-04-26 23:31 | 29.15663 | -81.10152 | 13442 ft | 361 kts | 178° |
| 2026-04-26 23:31 | 29.13206 | -81.09947 | 13314 ft | 346 kts | 178° |
| 2026-04-26 23:31 | 29.10854 | -81.09755 | 13153 ft | 333 kts | 178° |
| 2026-04-26 23:32 | 29.08579 | -81.09575 | 12870 ft | 324 kts | 178° |
| 2026-04-26 23:32 | 29.06367 | -81.09402 | 12439 ft | 321 kts | 178° |
| 2026-04-26 23:32 | 29.04140 | -81.09223 | 12121 ft | 327 kts | 178° |
| 2026-04-26 23:32 | 29.01781 | -81.09034 | 12011 ft | 339 kts | 178° |
| 2026-04-26 23:33 | 28.99509 | -81.08851 | 11654 ft | 319 kts | 178° |
| 2026-04-26 23:33 | 28.97339 | -81.08676 | 11200 ft | 308 kts | 178° |
| 2026-04-26 23:33 | 28.95191 | -81.08506 | 10809 ft | 311 kts | 178° |
| 2026-04-26 23:33 | 28.93035 | -81.08337 | 10389 ft | 309 kts | 178° |
| 2026-04-26 23:34 | 28.90897 | -81.08169 | 10007 ft | 307 kts | 178° |
| 2026-04-26 23:34 | 28.88776 | -81.08001 | 9607 ft | 304 kts | 178° |
| 2026-04-26 23:34 | 28.86674 | -81.07840 | 9204 ft | 301 kts | 178° |
| 2026-04-26 23:34 | 28.84589 | -81.07675 | 8833 ft | 299 kts | 178° |
| 2026-04-26 23:35 | 28.82517 | -81.07510 | 8451 ft | 297 kts | 178° |
| 2026-04-26 23:35 | 28.80489 | -81.07348 | 8082 ft | 296 kts | 178° |
| 2026-04-26 23:35 | 28.78449 | -81.07413 | 7744 ft | 292 kts | 195° |
| 2026-04-26 23:35 | 28.76651 | -81.08375 | 7401 ft | 285 kts | 221° |
| 2026-04-26 23:36 | 28.75384 | -81.10062 | 7062 ft | 279 kts | 240° |
| 2026-04-26 23:36 | 28.74386 | -81.11956 | 6745 ft | 278 kts | 243° |
| 2026-04-26 23:36 | 28.73426 | -81.13870 | 6400 ft | 277 kts | 243° |
| 2026-04-26 23:36 | 28.72480 | -81.15771 | 6039 ft | 276 kts | 243° |
| 2026-04-26 23:37 | 28.71536 | -81.17686 | 5506 ft | 278 kts | 243° |
| 2026-04-26 23:37 | 28.70595 | -81.19597 | 4966 ft | 272 kts | 243° |
| 2026-04-26 23:37 | 28.69687 | -81.21450 | 4440 ft | 265 kts | 243° |
| 2026-04-26 23:37 | 28.68799 | -81.23274 | 3879 ft | 262 kts | 243° |
| 2026-04-26 23:38 | 28.67931 | -81.25061 | 3367 ft | 261 kts | 243° |
| 2026-04-26 23:38 | 28.67047 | -81.26861 | 3009 ft | 260 kts | 243° |
| 2026-04-26 23:38 | 28.65845 | -81.28418 | 2903 ft | 267 kts | 218° |
| 2026-04-26 23:38 | 28.64176 | -81.29323 | 2903 ft | 270 kts | 197° |
| 2026-04-26 23:39 | 28.62303 | -81.29522 | 2911 ft | 272 kts | 182° |
| 2026-04-26 23:39 | 28.60414 | -81.29278 | 2911 ft | 278 kts | 169° |
| 2026-04-26 23:39 | 28.58583 | -81.28582 | 2903 ft | 276 kts | 163° |
| 2026-04-26 23:39 | 28.56712 | -81.28249 | 2912 ft | 271 kts | 182° |
| 2026-04-26 23:40 | 28.54824 | -81.28313 | 2843 ft | 272 kts | 185° |
| 2026-04-26 23:40 | 28.52932 | -81.28397 | 1919 ft | 281 kts | 184° |
| 2026-04-26 23:40 | 28.50976 | -81.28318 | 1070 ft | 280 kts | 179° |
| 2026-04-26 23:40 | 28.49091 | -81.28271 | 908 ft | 272 kts | 186° |
| 2026-04-26 23:41 | 28.47194 | -81.28325 | 681 ft | 264 kts | 180° |
| 2026-04-26 23:41 | 28.45461 | -81.28262 | 371 ft | 234 kts | 181° |
| 2026-04-26 23:41 | 28.43827 | -81.28254 | 308 ft | 255 kts | 182° |
| 2026-04-26 23:41 | 28.41900 | -81.28242 | 667 ft | 294 kts | 180° |
| 2026-04-26 23:42 | 28.39771 | -81.28188 | 1219 ft | 321 kts | 179° |
| 2026-04-26 23:42 | 28.35284 | -81.27164 | 1247 ft | 307 kts | 149° |
| 2026-04-26 23:42 | 28.33852 | -81.25624 | 1260 ft | 267 kts | 123° |
| 2026-04-26 23:43 | 28.33277 | -81.23758 | 1445 ft | 245 kts | 94° |
| 2026-04-26 23:43 | 28.33287 | -81.21786 | 1621 ft | 258 kts | 85° |
| 2026-04-26 23:43 | 28.33444 | -81.19747 | 2011 ft | 266 kts | 83° |
| 2026-04-26 23:43 | 28.33829 | -81.17692 | 2470 ft | 268 kts | 64° |
| 2026-04-26 23:44 | 28.34914 | -81.16004 | 2816 ft | 265 kts | 39° |
| 2026-04-26 23:44 | 28.36508 | -81.15046 | 2905 ft | 260 kts | 13° |
| 2026-04-26 23:44 | 28.38298 | -81.14898 | 2913 ft | 258 kts | 356° |
| 2026-04-26 23:44 | 28.40089 | -81.15051 | 2908 ft | 259 kts | 354° |
| 2026-04-26 23:45 | 28.41877 | -81.15236 | 2903 ft | 257 kts | 353° |
| 2026-04-26 23:45 | 28.43059 | -81.15363 | 2904 ft | 257 kts | 353° |
| 2026-04-26 23:45 | 28.45449 | -81.15623 | 2908 ft | 258 kts | 353° |
| 2026-04-26 23:45 | 28.47212 | -81.15810 | 2902 ft | 257 kts | 353° |
| 2026-04-26 23:46 | 28.48994 | -81.15995 | 2831 ft | 256 kts | 353° |
| 2026-04-26 23:46 | 28.50769 | -81.16184 | 2425 ft | 255 kts | 353° |
| 2026-04-26 23:46 | 28.52528 | -81.16377 | 2064 ft | 252 kts | 354° |
| 2026-04-26 23:46 | 28.54265 | -81.16593 | 1921 ft | 245 kts | 353° |
| 2026-04-26 23:47 | 28.55858 | -81.16797 | 1917 ft | 217 kts | 353° |
| 2026-04-26 23:47 | 28.57270 | -81.16981 | 1920 ft | 192 kts | 353° |
| 2026-04-26 23:47 | 28.58549 | -81.17138 | 1940 ft | 179 kts | 354° |
| 2026-04-26 23:47 | 28.59779 | -81.17287 | 1924 ft | 177 kts | 353° |
| 2026-04-26 23:48 | 28.61002 | -81.17433 | 1911 ft | 177 kts | 354° |
| 2026-04-26 23:48 | 28.62230 | -81.17603 | 1912 ft | 179 kts | 349° |
| 2026-04-26 23:48 | 28.63298 | -81.18295 | 1916 ft | 180 kts | 311° |
| 2026-04-26 23:48 | 28.63753 | -81.19576 | 1917 ft | 180 kts | 278° |
| 2026-04-26 23:49 | 28.63760 | -81.21017 | 1919 ft | 185 kts | 270° |
| 2026-04-26 23:49 | 28.63658 | -81.22466 | 1906 ft | 183 kts | 269° |
| 2026-04-26 23:49 | 28.63534 | -81.23918 | 1920 ft | 185 kts | 269° |
| 2026-04-26 23:49 | 28.63388 | -81.25368 | 1921 ft | 186 kts | 263° |
| 2026-04-26 23:50 | 28.62952 | -81.26768 | 1974 ft | 190 kts | 246° |
| 2026-04-26 23:50 | 28.62090 | -81.27911 | 2081 ft | 193 kts | 218° |
| 2026-04-26 23:50 | 28.60858 | -81.28487 | 2247 ft | 196 kts | 188° |
| 2026-04-26 23:50 | 28.59954 | -81.28550 | 2155 ft | 196 kts | 185° |
| 2026-04-26 23:51 | 28.58594 | -81.28531 | 1980 ft | 196 kts | 179° |
| 2026-04-26 23:51 | 28.56804 | -81.28465 | 1805 ft | 188 kts | 180° |
| 2026-04-26 23:51 | 28.55569 | -81.28397 | 1700 ft | 173 kts | 176° |
| 2026-04-26 23:51 | 28.54339 | -81.28310 | 1672 ft | 179 kts | 178° |
| 2026-04-26 23:52 | 28.53143 | -81.28224 | 1570 ft | 165 kts | 156° |
| 2026-04-26 23:52 | 28.51966 | -81.28245 | 1333 ft | 170 kts | 184° |
| 2026-04-26 23:52 | 28.50734 | -81.28365 | 1252 ft | 189 kts | 182° |
| 2026-04-26 23:52 | 28.49878 | -81.28366 | 1143 ft | 181 kts | 180° |
| 2026-04-26 23:53 | 28.48657 | -81.28298 | 896 ft | 171 kts | 179° |
| 2026-04-26 23:53 | 28.47497 | -81.28293 | 705 ft | 163 kts | 182° |
| 2026-04-26 23:53 | 28.46059 | -81.28252 | 517 ft | 156 kts | 179° |
| 2026-04-26 23:53 | 28.44980 | -81.28270 | 298 ft | 150 kts | 184° |
| 2026-04-26 23:54 | 28.43976 | -81.28246 | 134 ft | 137 kts | 186° |
| 2026-04-26 23:54 | 28.43367 | -81.28264 | 107 ft | 119 kts | 181° |
| 2026-04-26 23:54 | 28.42663 | -81.28254 | 110 ft | 88 kts | 178° |
| 2026-04-26 23:54 | 28.42309 | -81.28294 | 109 ft | 13 kts | 224° |
| 2026-04-26 23:55 | 28.42305 | -81.28299 | 110 ft | 0 kts | 227° |
| 2026-04-26 23:56 | 28.42305 | -81.28300 | 110 ft | 2 kts | 228° |
| 2026-04-26 23:56 | 28.42305 | -81.28339 | 112 ft | 5 kts | 298° |
| 2026-04-26 23:56 | 28.42384 | -81.28363 | 112 ft | 20 kts | 359° |
| 2026-04-26 23:56 | 28.42529 | -81.28363 | 111 ft | 22 kts | 0° |
| 2026-04-26 23:57 | 28.42691 | -81.28365 | 112 ft | 25 kts | 359° |
| 2026-04-26 23:57 | 28.42878 | -81.28367 | 105 ft | 29 kts | 360° |
| 2026-04-26 23:57 | 28.43087 | -81.28368 | 104 ft | 31 kts | 359° |
| 2026-04-26 23:57 | 28.43310 | -81.28371 | 107 ft | 33 kts | 359° |
| 2026-04-26 23:58 | 28.43541 | -81.28374 | 107 ft | 33 kts | 360° |
| 2026-04-26 23:58 | 28.43769 | -81.28376 | 111 ft | 30 kts | 359° |
| 2026-04-26 23:58 | 28.43867 | -81.28411 | 110 ft | 13 kts | 300° |
| 2026-04-26 23:58 | 28.43877 | -81.28519 | 113 ft | 15 kts | 270° |
| 2026-04-26 23:59 | 28.43874 | -81.28646 | 110 ft | 17 kts | 269° |
| 2026-04-26 23:59 | 28.43873 | -81.28789 | 110 ft | 19 kts | 270° |
| 2026-04-26 23:59 | 28.43874 | -81.28949 | 110 ft | 21 kts | 270° |
| 2026-04-26 23:59 | 28.43870 | -81.29126 | 104 ft | 26 kts | 268° |
| 2026-04-27 00:00 | 28.43830 | -81.29257 | 104 ft | 16 kts | 200° |
| 2026-04-27 00:00 | 28.43716 | -81.29264 | 104 ft | 18 kts | 180° |
| 2026-04-27 00:00 | 28.43590 | -81.29265 | 108 ft | 11 kts | 192° |
| 2026-04-27 00:00 | 28.43554 | -81.29331 | 109 ft | 13 kts | 261° |
| 2026-04-27 00:01 | 28.43553 | -81.29417 | 110 ft | 15 kts | 270° |
| 2026-04-27 00:01 | 28.43552 | -81.29550 | 108 ft | 19 kts | 269° |
| 2026-04-27 00:01 | 28.43550 | -81.29714 | 107 ft | 22 kts | 266° |
| 2026-04-27 00:01 | 28.43608 | -81.29801 | 107 ft | 15 kts | 347° |
| 2026-04-27 00:02 | 28.43765 | -81.29827 | 108 ft | 26 kts | 338° |
| 2026-04-27 00:02 | 28.43843 | -81.29935 | 108 ft | 16 kts | 253° |
| 2026-04-27 00:02 | 28.43826 | -81.30072 | 105 ft | 20 kts | 271° |
| 2026-04-27 00:02 | 28.43770 | -81.30194 | 104 ft | 13 kts | 229° |
| 2026-04-27 00:03 | 28.43700 | -81.30195 | 105 ft | 11 kts | 144° |
| 2026-04-27 00:03 | 28.43643 | -81.30151 | 106 ft | 1 kts | 172° |